Observation data for Palo Duro Canyon State Park Floor on 03/13/2018      Previous  Date       Current Mesonet Observations  Soil Data  Daily Summary Page  Observations in Plain Language
KPD2 130501Z 12005KT 07/M06 A3023 RMK A01 T00681060  RH  039%=      5-min Rain = 0
KPD2 130502Z 12005KT 07/M06 A3023 RMK A01 T00681060  RH  039%=      5-min Rain = 0
KPD2 130503Z 13004KT 07/M06 A3023 RMK A01 T00671061  RH  040%=      5-min Rain = 0
KPD2 130504Z 13004KT 07/M06 A3023 RMK A01 T00671061  RH  040%=      5-min Rain = 0
KPD2 130505Z 12004KT 07/M06 A3023 RMK A01 T00671061  RH  040%=      5-min Rain = 0
KPD2 130506Z 13004KT 07/M06 A3023 RMK A01 T00661061  RH  040%=      5-min Rain = 0
KPD2 130507Z 13004KT 07/M06 A3023 RMK A01 T00661061  RH  040%=      5-min Rain = 0
KPD2 130508Z 13005KT 07/M06 A3023 RMK A01 T00661060  RH  040%=      5-min Rain = 0
KPD2 130509Z 13005KT 07/M06 A3023 RMK A01 T00671060  RH  040%=      5-min Rain = 0
KPD2 130510Z 13004KT 07/M06 A3023 RMK A01 T00671060  RH  040%=      5-min Rain = 0
KPD2 130511Z 13005KT 07/M06 A3023 RMK A01 T00671060  RH  040%=      5-min Rain = 0
KPD2 130512Z 13004KT 07/M06 A3023 RMK A01 T00671060  RH  040%=      5-min Rain = 0
KPD2 130513Z 13005KT 07/M06 A3023 RMK A01 T00681059  RH  040%=      5-min Rain = 0
KPD2 130514Z 13004KT 07/M06 A3023 RMK A01 T00681060  RH  040%=      5-min Rain = 0
KPD2 130515Z 12004KT 07/M06 A3023 RMK A01 T00681060  RH  040%=      5-min Rain = 0
KPD2 130516Z 13004KT 07/M06 A3023 RMK A01 T00681060  RH  039%=      5-min Rain = 0
KPD2 130517Z 13005KT 07/M06 A3023 RMK A01 T00681061  RH  039%=      5-min Rain = 0
KPD2 130518Z 13004KT 07/M06 A3023 RMK A01 T00681060  RH  039%=      5-min Rain = 0
KPD2 130519Z 13003KT 07/M06 A3023 RMK A01 T00691060  RH  039%=      5-min Rain = 0
KPD2 130520Z 13004KT 07/M06 A3023 RMK A01 T00691060  RH  039%=      5-min Rain = 0
KPD2 130521Z 12004KT 07/M06 A3023 RMK A01 T00681060  RH  039%=      5-min Rain = 0
KPD2 130522Z 12005KT 07/M06 A3023 RMK A01 T00681060  RH  040%=      5-min Rain = 0
KPD2 130523Z 12005KT 07/M06 A3023 RMK A01 T00681060  RH  040%=      5-min Rain = 0
KPD2 130524Z 13004KT 07/M06 A3023 RMK A01 T00681061  RH  039%=      5-min Rain = 0
KPD2 130525Z 12005KT 07/M06 A3023 RMK A01 T00671061  RH  039%=      5-min Rain = 0
KPD2 130526Z 13005KT 07/M06 A3023 RMK A01 T00671061  RH  040%=      5-min Rain = 0
KPD2 130527Z 12005KT 07/M06 A3023 RMK A01 T00661061  RH  040%=      5-min Rain = 0
KPD2 130528Z 12004KT 07/M06 A3023 RMK A01 T00661061  RH  040%=      5-min Rain = 0
KPD2 130529Z 12004KT 07/M06 A3023 RMK A01 T00661061  RH  040%=      5-min Rain = 0
KPD2 130530Z 12004KT 07/M06 A3023 RMK A01 T00651061  RH  040%=      5-min Rain = 0
KPD2 130531Z 12003KT 07/M06 A3023 RMK A01 T00651061  RH  040%=      5-min Rain = 0
KPD2 130532Z 12005KT 07/M06 A3023 RMK A01 T00651062  RH  040%=      5-min Rain = 0
KPD2 130533Z 11004KT 07/M06 A3023 RMK A01 T00651062  RH  040%=      5-min Rain = 0
KPD2 130534Z 12003KT 07/M06 A3023 RMK A01 T00651062  RH  040%=      5-min Rain = 0
KPD2 130535Z 12004KT 07/M06 A3023 RMK A01 T00661062  RH  040%=      5-min Rain = 0
KPD2 130536Z 12004KT 07/M06 A3023 RMK A01 T00661061  RH  040%=      5-min Rain = 0
KPD2 130537Z 12004KT 07/M06 A3023 RMK A01 T00681061  RH  039%=      5-min Rain = 0
KPD2 130538Z 12004KT 07/M06 A3023 RMK A01 T00681061  RH  039%=      5-min Rain = 0
KPD2 130539Z 11004KT 07/M06 A3023 RMK A01 T00681061  RH  039%=      5-min Rain = 0
KPD2 130540Z 11004KT 07/M06 A3023 RMK A01 T00681061  RH  039%=      5-min Rain = 0
KPD2 130541Z 11004KT 07/M06 A3023 RMK A01 T00691061  RH  039%=      5-min Rain = 0
KPD2 130542Z 11004KT 07/M06 A3023 RMK A01 T00691060  RH  039%=      5-min Rain = 0
KPD2 130543Z 12003KT 07/M06 A3023 RMK A01 T00701060  RH  039%=      5-min Rain = 0
KPD2 130544Z 12004KT 07/M06 A3023 RMK A01 T00701060  RH  039%=      5-min Rain = 0
KPD2 130545Z 12004KT 07/M06 A3023 RMK A01 T00711060  RH  039%=      5-min Rain = 0
KPD2 130546Z 12004KT 07/M06 A3023 RMK A01 T00711061  RH  039%=      5-min Rain = 0
KPD2 130547Z 12005KT 07/M06 A3023 RMK A01 T00701061  RH  039%=      5-min Rain = 0
KPD2 130548Z 12004KT 07/M06 A3023 RMK A01 T00701061  RH  039%=      5-min Rain = 0
KPD2 130549Z 12004KT 07/M06 A3023 RMK A01 T00701061  RH  039%=      5-min Rain = 0
KPD2 130550Z 12004KT 07/M06 A3023 RMK A01 T00691061  RH  039%=      5-min Rain = 0
KPD2 130551Z 10003KT 07/M06 A3023 RMK A01 T00691061  RH  039%=      5-min Rain = 0
KPD2 130552Z 10004KT 07/M06 A3023 RMK A01 T00681062  RH  039%=      5-min Rain = 0
KPD2 130553Z 11005KT 07/M06 A3023 RMK A01 T00681062  RH  039%=      5-min Rain = 0
KPD2 130554Z 11004KT 07/M06 A3023 RMK A01 T00681061  RH  039%=      5-min Rain = 0
KPD2 130555Z 10005KT 07/M06 A3023 RMK A01 T00691061  RH  039%=      5-min Rain = 0
KPD2 130556Z 11004KT 07/M06 A3023 RMK A01 T00701060  RH  039%=      5-min Rain = 0
KPD2 130557Z 11003KT 07/M06 A3023 RMK A01 T00701061  RH  039%=      5-min Rain = 0
KPD2 130558Z 10003KT 07/M06 A3023 RMK A01 T00701062  RH  039%=      5-min Rain = 0
KPD2 130559Z 11003KT 07/M06 A3023 RMK A01 T00691062  RH  039%=      5-min Rain = 0
KPD2 130600Z 10004KT 07/M06 A3023 RMK A01 T00681062  RH  039%=      5-min Rain = 0
KPD2 130601Z 10004KT 07/M06 A3023 RMK A01 T00681062  RH  039%=      5-min Rain = 0
KPD2 130602Z 10005KT 07/M06 A3023 RMK A01 T00681061  RH  039%=      5-min Rain = 0
KPD2 130603Z 10005KT 07/M06 A3023 RMK A01 T00691061  RH  039%=      5-min Rain = 0
KPD2 130604Z 10005KT 07/M06 A3023 RMK A01 T00701061  RH  039%=      5-min Rain = 0
KPD2 130605Z 11004KT 07/M06 A3023 RMK A01 T00701061  RH  039%=      5-min Rain = 0
KPD2 130606Z 11004KT 07/M06 A3023 RMK A01 T00701062  RH  039%=      5-min Rain = 0
KPD2 130607Z 10005KT 07/M06 A3023 RMK A01 T00701062  RH  039%=      5-min Rain = 0
KPD2 130608Z 11005KT 07/M06 A3023 RMK A01 T00701061  RH  039%=      5-min Rain = 0
KPD2 130609Z 11004KT 07/M06 A3023 RMK A01 T00701061  RH  039%=      5-min Rain = 0
KPD2 130610Z 11004KT 07/M06 A3023 RMK A01 T00711061  RH  038%=      5-min Rain = 0
KPD2 130611Z 11004KT 07/M06 A3023 RMK A01 T00711061  RH  038%=      5-min Rain = 0
KPD2 130612Z 11005KT 07/M06 A3023 RMK A01 T00711062  RH  038%=      5-min Rain = 0
KPD2 130613Z 11005KT 07/M06 A3023 RMK A01 T00701062  RH  039%=      5-min Rain = 0
KPD2 130614Z 10005KT 07/M06 A3023 RMK A01 T00711062  RH  038%=      5-min Rain = 0
KPD2 130615Z 10006KT 07/M06 A3023 RMK A01 T00711062  RH  038%=      5-min Rain = 0
KPD2 130616Z 10006KT 07/M06 A3023 RMK A01 T00711062  RH  038%=      5-min Rain = 0
KPD2 130617Z 10006KT 07/M06 A3023 RMK A01 T00711062  RH  038%=      5-min Rain = 0
KPD2 130618Z 10006KT 07/M06 A3023 RMK A01 T00711062  RH  038%=      5-min Rain = 0
KPD2 130619Z 10005KT 07/M06 A3023 RMK A01 T00721062  RH  038%=      5-min Rain = 0
KPD2 130620Z 10006KT 07/M06 A3023 RMK A01 T00721062  RH  038%=      5-min Rain = 0
KPD2 130621Z 11006KT 07/M06 A3023 RMK A01 T00721062  RH  038%=      5-min Rain = 0
KPD2 130622Z 11006KT 07/M06 A3023 RMK A01 T00721062  RH  038%=      5-min Rain = 0
KPD2 130623Z 11005KT 07/M06 A3023 RMK A01 T00711062  RH  038%=      5-min Rain = 0
KPD2 130624Z 11005KT 07/M06 A3023 RMK A01 T00711062  RH  038%=      5-min Rain = 0
KPD2 130625Z 11004KT 07/M06 A3023 RMK A01 T00711063  RH  038%=      5-min Rain = 0
KPD2 130626Z 10006KT 07/M06 A3023 RMK A01 T00701063  RH  038%=      5-min Rain = 0
KPD2 130627Z 10005KT 07/M06 A3023 RMK A01 T00701062  RH  038%=      5-min Rain = 0
KPD2 130628Z 11005KT 07/M06 A3023 RMK A01 T00701062  RH  038%=      5-min Rain = 0
KPD2 130629Z 10006KT 07/M06 A3023 RMK A01 T00701063  RH  038%=      5-min Rain = 0
KPD2 130630Z 11005KT 07/M06 A3023 RMK A01 T00691063  RH  038%=      5-min Rain = 0
KPD2 130631Z 10006KT 07/M06 A3023 RMK A01 T00691063  RH  038%=      5-min Rain = 0
KPD2 130632Z 11006KT 07/M06 A3023 RMK A01 T00691063  RH  039%=      5-min Rain = 0
KPD2 130633Z 12004KT 07/M06 A3023 RMK A01 T00691063  RH  039%=      5-min Rain = 0
KPD2 130634Z 11004KT 07/M06 A3023 RMK A01 T00681063  RH  039%=      5-min Rain = 0
KPD2 130635Z 10005KT 07/M06 A3023 RMK A01 T00671064  RH  039%=      5-min Rain = 0
KPD2 130636Z 10005KT 07/M06 A3023 RMK A01 T00661064  RH  039%=      5-min Rain = 0
KPD2 130637Z 10006KT 07/M06 A3023 RMK A01 T00661063  RH  039%=      5-min Rain = 0
KPD2 130638Z 10006KT 07/M06 A3023 RMK A01 T00661063  RH  039%=      5-min Rain = 0
KPD2 130639Z 10006KT 07/M06 A3023 RMK A01 T00661063  RH  039%=      5-min Rain = 0
KPD2 130640Z 10006KT 07/M06 A3023 RMK A01 T00661063  RH  039%=      5-min Rain = 0
KPD2 130641Z 10006KT 07/M06 A3023 RMK A01 T00661063  RH  039%=      5-min Rain = 0
KPD2 130642Z 10005KT 07/M06 A3023 RMK A01 T00661063  RH  039%=      5-min Rain = 0
KPD2 130643Z 10003KT 07/M06 A3023 RMK A01 T00651064  RH  039%=      5-min Rain = 0
KPD2 130644Z 11005KT 06/M07 A3023 RMK A01 T00631066  RH  039%=      5-min Rain = 0
KPD2 130645Z 10005KT 06/M06 A3023 RMK A01 T00621064  RH  040%=      5-min Rain = 0
KPD2 130646Z 10004KT 06/M06 A3023 RMK A01 T00621064  RH  040%=      5-min Rain = 0
KPD2 130647Z 11005KT 06/M06 A3023 RMK A01 T00621064  RH  040%=      5-min Rain = 0
KPD2 130648Z 11005KT 06/M06 A3023 RMK A01 T00621064  RH  040%=      5-min Rain = 0
KPD2 130649Z 11005KT 06/M06 A3023 RMK A01 T00621064  RH  040%=      5-min Rain = 0
KPD2 130650Z 10005KT 06/M06 A3023 RMK A01 T00621064  RH  040%=      5-min Rain = 0
KPD2 130651Z 10006KT 06/M06 A3023 RMK A01 T00621064  RH  040%=      5-min Rain = 0
KPD2 130652Z 10005KT 06/M06 A3023 RMK A01 T00621064  RH  040%=      5-min Rain = 0
KPD2 130653Z 11006KT 06/M06 A3023 RMK A01 T00621064  RH  040%=      5-min Rain = 0
KPD2 130654Z 11005KT 06/M06 A3024 RMK A01 T00611064  RH  040%=      5-min Rain = 0
KPD2 130655Z 11005KT 06/M06 A3024 RMK A01 T00611064  RH  040%=      5-min Rain = 0
KPD2 130656Z 10004KT 06/M07 A3024 RMK A01 T00611065  RH  040%=      5-min Rain = 0
KPD2 130657Z 11005KT 06/M07 A3023 RMK A01 T00611065  RH  040%=      5-min Rain = 0
KPD2 130658Z 11004KT 06/M07 A3024 RMK A01 T00601065  RH  040%=      5-min Rain = 0
KPD2 130659Z 11003KT 06/M06 A3024 RMK A01 T00601064  RH  040%=      5-min Rain = 0
KPD2 130700Z 10004KT 06/M07 A3024 RMK A01 T00591066  RH  040%=      5-min Rain = 0
KPD2 130701Z 10006KT 06/M07 A3024 RMK A01 T00581066  RH  041%=      5-min Rain = 0
KPD2 130702Z 11005KT 06/M07 A3024 RMK A01 T00581065  RH  041%=      5-min Rain = 0
KPD2 130703Z 11004KT 06/M07 A3024 RMK A01 T00571065  RH  041%=      5-min Rain = 0
KPD2 130704Z 10004KT 06/M07 A3024 RMK A01 T00571066  RH  041%=      5-min Rain = 0
KPD2 130705Z 10005KT 06/M07 A3024 RMK A01 T00571065  RH  041%=      5-min Rain = 0
KPD2 130706Z 11004KT 06/M06 A3024 RMK A01 T00571064  RH  041%=      5-min Rain = 0
KPD2 130707Z 10005KT 06/M07 A3024 RMK A01 T00571065  RH  041%=      5-min Rain = 0
KPD2 130708Z 10005KT 06/M07 A3024 RMK A01 T00571065  RH  041%=      5-min Rain = 0
KPD2 130709Z 11005KT 06/M07 A3024 RMK A01 T00561065  RH  041%=      5-min Rain = 0
KPD2 130710Z 11005KT 06/M07 A3024 RMK A01 T00561065  RH  041%=      5-min Rain = 0
KPD2 130711Z 11005KT 06/M07 A3024 RMK A01 T00561065  RH  041%=      5-min Rain = 0
KPD2 130712Z 10005KT 06/M07 A3024 RMK A01 T00561065  RH  041%=      5-min Rain = 0
KPD2 130713Z 10004KT 06/M07 A3024 RMK A01 T00561065  RH  041%=      5-min Rain = 0
KPD2 130714Z 12004KT 06/M07 A3024 RMK A01 T00561065  RH  041%=      5-min Rain = 0
KPD2 130715Z 12004KT 05/M07 A3024 RMK A01 T00541067  RH  041%=      5-min Rain = 0
KPD2 130716Z 11003KT 05/M07 A3024 RMK A01 T00521068  RH  042%=      5-min Rain = 0
KPD2 130717Z 10004KT 05/M07 A3024 RMK A01 T00501068  RH  042%=      5-min Rain = 0
KPD2 130718Z 14002KT 05/M07 A3024 RMK A01 T00491068  RH  042%=      5-min Rain = 0
KPD2 130719Z 14003KT 05/M07 A3024 RMK A01 T00481068  RH  043%=      5-min Rain = 0
KPD2 130720Z 14003KT 05/M07 A3024 RMK A01 T00471069  RH  043%=      5-min Rain = 0
KPD2 130721Z 13003KT 05/M07 A3024 RMK A01 T00461069  RH  043%=      5-min Rain = 0
KPD2 130722Z 12003KT 05/M07 A3024 RMK A01 T00451069  RH  043%=      5-min Rain = 0
KPD2 130723Z 11003KT 04/M07 A3024 RMK A01 T00441069  RH  044%=      5-min Rain = 0
KPD2 130724Z 11003KT 04/M07 A3024 RMK A01 T00431068  RH  044%=      5-min Rain = 0
KPD2 130725Z 12003KT 04/M07 A3025 RMK A01 T00431069  RH  044%=      5-min Rain = 0
KPD2 130726Z 12003KT 04/M07 A3025 RMK A01 T00431069  RH  044%=      5-min Rain = 0
KPD2 130727Z 12003KT 04/M07 A3025 RMK A01 T00421069  RH  044%=      5-min Rain = 0
KPD2 130728Z 12003KT 04/M07 A3025 RMK A01 T00411069  RH  044%=      5-min Rain = 0
KPD2 130729Z 12003KT 04/M07 A3025 RMK A01 T00401069  RH  045%=      5-min Rain = 0
KPD2 130730Z 11003KT 04/M07 A3025 RMK A01 T00391069  RH  045%=      5-min Rain = 0
KPD2 130731Z 13003KT 04/M07 A3025 RMK A01 T00391069  RH  045%=      5-min Rain = 0
KPD2 130732Z 13003KT 04/M07 A3025 RMK A01 T00391069  RH  045%=      5-min Rain = 0
KPD2 130733Z 12003KT 04/M07 A3025 RMK A01 T00381069  RH  045%=      5-min Rain = 0
KPD2 130734Z 13003KT 04/M07 A3025 RMK A01 T00381069  RH  045%=      5-min Rain = 0
KPD2 130735Z 13002KT 04/M07 A3025 RMK A01 T00381069  RH  045%=      5-min Rain = 0
KPD2 130736Z 13003KT 04/M07 A3025 RMK A01 T00371070  RH  046%=      5-min Rain = 0
KPD2 130737Z 13003KT 04/M07 A3025 RMK A01 T00371070  RH  046%=      5-min Rain = 0
KPD2 130738Z 13003KT 04/M07 A3025 RMK A01 T00361070  RH  046%=      5-min Rain = 0
KPD2 130739Z 13004KT 04/M07 A3025 RMK A01 T00351070  RH  046%=      5-min Rain = 0
KPD2 130740Z 14004KT 03/M07 A3025 RMK A01 T00341070  RH  046%=      5-min Rain = 0
KPD2 130741Z 14004KT 03/M07 A3025 RMK A01 T00331070  RH  047%=      5-min Rain = 0
KPD2 130742Z 14003KT 03/M07 A3025 RMK A01 T00331070  RH  047%=      5-min Rain = 0
KPD2 130743Z 14003KT 03/M07 A3025 RMK A01 T00331070  RH  047%=      5-min Rain = 0
KPD2 130744Z 14003KT 03/M07 A3025 RMK A01 T00321070  RH  047%=      5-min Rain = 0
KPD2 130745Z 14003KT 03/M07 A3025 RMK A01 T00311071  RH  047%=      5-min Rain = 0
KPD2 130746Z 14003KT 03/M07 A3025 RMK A01 T00301071  RH  047%=      5-min Rain = 0
KPD2 130747Z 13003KT 03/M07 A3025 RMK A01 T00301071  RH  048%=      5-min Rain = 0
KPD2 130748Z 13003KT 03/M07 A3025 RMK A01 T00301070  RH  048%=      5-min Rain = 0
KPD2 130749Z 13003KT 03/M07 A3025 RMK A01 T00291071  RH  048%=      5-min Rain = 0
KPD2 130750Z 13003KT 03/M07 A3025 RMK A01 T00291071  RH  048%=      5-min Rain = 0
KPD2 130751Z 13003KT 03/M07 A3025 RMK A01 T00291071  RH  048%=      5-min Rain = 0
KPD2 130752Z 12003KT 03/M07 A3025 RMK A01 T00291071  RH  048%=      5-min Rain = 0
KPD2 130753Z 12003KT 03/M07 A3025 RMK A01 T00291071  RH  048%=      5-min Rain = 0
KPD2 130754Z 12003KT 03/M07 A3025 RMK A01 T00291071  RH  048%=      5-min Rain = 0
KPD2 130755Z 12003KT 03/M07 A3025 RMK A01 T00301071  RH  048%=      5-min Rain = 0
KPD2 130756Z 13003KT 03/M07 A3025 RMK A01 T00301069  RH  048%=      5-min Rain = 0
KPD2 130757Z 13003KT 03/M07 A3025 RMK A01 T00321069  RH  048%=      5-min Rain = 0
KPD2 130758Z 12004KT 03/M07 A3025 RMK A01 T00331069  RH  047%=      5-min Rain = 0
KPD2 130759Z 13004KT 03/M07 A3025 RMK A01 T00331069  RH  047%=      5-min Rain = 0
KPD2 130800Z 12004KT 03/M07 A3025 RMK A01 T00341069  RH  047%=      5-min Rain = 0
KPD2 130801Z 12003KT 03/M07 A3025 RMK A01 T00341069  RH  047%=      5-min Rain = 0
KPD2 130802Z 12004KT 03/M07 A3025 RMK A01 T00341069  RH  047%=      5-min Rain = 0
KPD2 130803Z 12003KT 03/M07 A3025 RMK A01 T00341069  RH  047%=      5-min Rain = 0
KPD2 130804Z 12003KT 03/M07 A3025 RMK A01 T00341070  RH  047%=      5-min Rain = 0
KPD2 130805Z 12004KT 04/M07 A3025 RMK A01 T00351069  RH  046%=      5-min Rain = 0
KPD2 130806Z 12003KT 04/M07 A3025 RMK A01 T00351069  RH  046%=      5-min Rain = 0
KPD2 130807Z 12003KT 04/M07 A3025 RMK A01 T00361069  RH  046%=      5-min Rain = 0
KPD2 130808Z 12003KT 04/M07 A3025 RMK A01 T00351070  RH  046%=      5-min Rain = 0
KPD2 130809Z 12003KT 04/M07 A3025 RMK A01 T00361070  RH  046%=      5-min Rain = 0
KPD2 130810Z 12004KT 04/M07 A3025 RMK A01 T00361070  RH  046%=      5-min Rain = 0
KPD2 130811Z 12003KT 04/M07 A3025 RMK A01 T00351070  RH  046%=      5-min Rain = 0
KPD2 130812Z 12003KT 04/M07 A3025 RMK A01 T00351070  RH  046%=      5-min Rain = 0
KPD2 130813Z 13004KT 04/M07 A3025 RMK A01 T00351070  RH  046%=      5-min Rain = 0
KPD2 130814Z 13004KT 04/M07 A3025 RMK A01 T00351069  RH  046%=      5-min Rain = 0
KPD2 130815Z 13004KT 04/M07 A3025 RMK A01 T00351070  RH  046%=      5-min Rain = 0
KPD2 130816Z 13005KT 04/M07 A3025 RMK A01 T00351069  RH  046%=      5-min Rain = 0
KPD2 130817Z 13004KT 04/M07 A3025 RMK A01 T00351069  RH  047%=      5-min Rain = 0
KPD2 130818Z 13003KT 04/M07 A3025 RMK A01 T00351069  RH  047%=      5-min Rain = 0
KPD2 130819Z 13003KT 03/M07 A3025 RMK A01 T00341069  RH  047%=      5-min Rain = 0
KPD2 130820Z 13003KT 03/M07 A3025 RMK A01 T00341070  RH  047%=      5-min Rain = 0
KPD2 130821Z 12002KT 03/M07 A3025 RMK A01 T00331070  RH  047%=      5-min Rain = 0
KPD2 130822Z 13003KT 03/M07 A3025 RMK A01 T00321070  RH  047%=      5-min Rain = 0
KPD2 130823Z 13003KT 03/M07 A3025 RMK A01 T00321070  RH  047%=      5-min Rain = 0
KPD2 130824Z 13003KT 03/M07 A3025 RMK A01 T00321070  RH  047%=      5-min Rain = 0
KPD2 130825Z 13003KT 03/M07 A3025 RMK A01 T00311070  RH  047%=      5-min Rain = 0
KPD2 130826Z 13003KT 03/M07 A3025 RMK A01 T00311070  RH  048%=      5-min Rain = 0
KPD2 130827Z 13002KT 03/M07 A3025 RMK A01 T00311070  RH  048%=      5-min Rain = 0
KPD2 130828Z 12003KT 03/M07 A3025 RMK A01 T00301071  RH  048%=      5-min Rain = 0
KPD2 130829Z 12003KT 03/M07 A3025 RMK A01 T00301071  RH  048%=      5-min Rain = 0
KPD2 130830Z 13003KT 03/M07 A3025 RMK A01 T00301071  RH  048%=      5-min Rain = 0
KPD2 130831Z 13003KT 03/M07 A3025 RMK A01 T00291071  RH  048%=      5-min Rain = 0
KPD2 130832Z 13003KT 03/M07 A3025 RMK A01 T00281071  RH  048%=      5-min Rain = 0
KPD2 130833Z 13003KT 03/M07 A3025 RMK A01 T00271072  RH  048%=      5-min Rain = 0
KPD2 130834Z 13003KT 03/M07 A3025 RMK A01 T00271071  RH  048%=      5-min Rain = 0
KPD2 130835Z 14003KT 03/M07 A3025 RMK A01 T00271071  RH  049%=      5-min Rain = 0
KPD2 130836Z 14003KT 03/M07 A3025 RMK A01 T00271071  RH  049%=      5-min Rain = 0
KPD2 130837Z 14002KT 03/M07 A3025 RMK A01 T00261071  RH  049%=      5-min Rain = 0
KPD2 130838Z 14001KT 03/M07 A3025 RMK A01 T00261071  RH  049%=      5-min Rain = 0
KPD2 130839Z 14001KT 03/M07 A3025 RMK A01 T00251072  RH  049%=      5-min Rain = 0
KPD2 130840Z 14001KT 02/M07 A3025 RMK A01 T00241073  RH  049%=      5-min Rain = 0
KPD2 130841Z 14001KT 02/M07 A3025 RMK A01 T00241072  RH  049%=      5-min Rain = 0
KPD2 130842Z 13001KT 02/M07 A3025 RMK A01 T00231073  RH  049%=      5-min Rain = 0
KPD2 130843Z 13001KT 02/M07 A3025 RMK A01 T00221073  RH  049%=      5-min Rain = 0
KPD2 130844Z 13001KT 02/M07 A3025 RMK A01 T00211073  RH  050%=      5-min Rain = 0
KPD2 130845Z 13002KT 02/M07 A3025 RMK A01 T00201074  RH  050%=      5-min Rain = 0
KPD2 130846Z 13003KT 02/M07 A3025 RMK A01 T00191074  RH  050%=      5-min Rain = 0
KPD2 130847Z 12003KT 02/M07 A3025 RMK A01 T00191074  RH  050%=      5-min Rain = 0
KPD2 130848Z 12003KT 02/M07 A3025 RMK A01 T00181074  RH  050%=      5-min Rain = 0
KPD2 130849Z 12003KT 02/M07 A3025 RMK A01 T00181074  RH  051%=      5-min Rain = 0
KPD2 130850Z 12003KT 02/M07 A3025 RMK A01 T00181074  RH  051%=      5-min Rain = 0
KPD2 130851Z 13003KT 02/M07 A3025 RMK A01 T00181074  RH  051%=      5-min Rain = 0
KPD2 130852Z 12003KT 02/M07 A3025 RMK A01 T00181074  RH  050%=      5-min Rain = 0
KPD2 130853Z 12003KT 02/M07 A3025 RMK A01 T00181074  RH  051%=      5-min Rain = 0
KPD2 130854Z 12003KT 02/M07 A3025 RMK A01 T00191074  RH  050%=      5-min Rain = 0
KPD2 130855Z 12002KT 02/M07 A3025 RMK A01 T00191073  RH  051%=      5-min Rain = 0
KPD2 130856Z 12002KT 02/M07 A3025 RMK A01 T00201072  RH  050%=      5-min Rain = 0
KPD2 130857Z 12003KT 02/M07 A3025 RMK A01 T00211072  RH  050%=      5-min Rain = 0
KPD2 130858Z 12003KT 02/M07 A3025 RMK A01 T00211072  RH  050%=      5-min Rain = 0
KPD2 130859Z 11002KT 02/M07 A3025 RMK A01 T00221072  RH  050%=      5-min Rain = 0
KPD2 130900Z 12002KT 02/M07 A3025 RMK A01 T00231072  RH  050%=      5-min Rain = 0
KPD2 130901Z 12003KT 02/M07 A3025 RMK A01 T00231072  RH  049%=      5-min Rain = 0
KPD2 130902Z 12003KT 02/M07 A3025 RMK A01 T00241072  RH  049%=      5-min Rain = 0
KPD2 130903Z 12003KT 02/M07 A3025 RMK A01 T00241072  RH  049%=      5-min Rain = 0
KPD2 130904Z 12002KT 02/M07 A3025 RMK A01 T00241072  RH  049%=      5-min Rain = 0
KPD2 130905Z 12003KT 02/M07 A3025 RMK A01 T00241072  RH  049%=      5-min Rain = 0
KPD2 130906Z 12003KT 02/M07 A3025 RMK A01 T00241072  RH  049%=      5-min Rain = 0
KPD2 130907Z 13002KT 02/M07 A3025 RMK A01 T00241072  RH  049%=      5-min Rain = 0
KPD2 130908Z 13003KT 02/M07 A3025 RMK A01 T00241072  RH  049%=      5-min Rain = 0
KPD2 130909Z 13002KT 03/M07 A3025 RMK A01 T00251072  RH  049%=      5-min Rain = 0
KPD2 130910Z 13002KT 02/M07 A3025 RMK A01 T00241072  RH  049%=      5-min Rain = 0
KPD2 130911Z 14002KT 02/M07 A3025 RMK A01 T00241073  RH  049%=      5-min Rain = 0
KPD2 130912Z 14001KT 02/M08 A3025 RMK A01 T00211077  RH  049%=      5-min Rain = 0
KPD2 130913Z 15001KT 02/M08 A3025 RMK A01 T00171078  RH  049%=      5-min Rain = 0
KPD2 130914Z 15001KT 02/M08 A3025 RMK A01 T00151078  RH  050%=      5-min Rain = 0
KPD2 130915Z 15001KT 01/M08 A3025 RMK A01 T00131077  RH  051%=      5-min Rain = 0
KPD2 130916Z 15000KT 01/M08 A3025 RMK A01 T00111078  RH  051%=      5-min Rain = 0
KPD2 130917Z 13000KT 01/M08 A3025 RMK A01 T00091083  RH  050%=      5-min Rain = 0
KPD2 130918Z 13000KT 01/M08 A3025 RMK A01 T00061083  RH  051%=      5-min Rain = 0
KPD2 130919Z 00000KT 00/M08 A3025 RMK A01 T00041083  RH  052%=      5-min Rain = 0
KPD2 130920Z 00000KT 00/M08 A3025 RMK A01 T00021082  RH  053%=      5-min Rain = 0
KPD2 130921Z 00000KT 00/M08 A3025 RMK A01 T00011081  RH  054%=      5-min Rain = 0
KPD2 130922Z 00000KT 00/08 A3025 RMK A01 T00-00-81  RH  054%=      5-min Rain = 0
KPD2 130923Z 00000KT M00/M08 A3025 RMK A01 T10011081  RH  055%=      5-min Rain = 0
KPD2 130924Z 00000KT M00/M08 A3025 RMK A01 T10021081  RH  055%=      5-min Rain = 0
KPD2 130925Z 17000KT M00/M08 A3025 RMK A01 T10021080  RH  056%=      5-min Rain = 0
KPD2 130926Z 17000KT M00/M08 A3025 RMK A01 T10021079  RH  056%=      5-min Rain = 0
KPD2 130927Z 17001KT M00/M08 A3025 RMK A01 T10011077  RH  056%=      5-min Rain = 0
KPD2 130928Z 19000KT 00/08 A3025 RMK A01 T00-00-77  RH  056%=      5-min Rain = 0
KPD2 130929Z 22001KT 00/08 A3025 RMK A01 T00000-77  RH  056%=      5-min Rain = 0
KPD2 130930Z 22001KT 00/08 A3025 RMK A01 T00000-78  RH  056%=      5-min Rain = 0
KPD2 130931Z 22000KT 00/M08 A3025 RMK A01 T00011078  RH  056%=      5-min Rain = 0
KPD2 130932Z 00000KT 00/M08 A3025 RMK A01 T00011077  RH  056%=      5-min Rain = 0
KPD2 130933Z 00000KT 00/M08 A3025 RMK A01 T00011078  RH  056%=      5-min Rain = 0
KPD2 130934Z 22000KT 00/M08 A3025 RMK A01 T00011077  RH  056%=      5-min Rain = 0
KPD2 130935Z 00000KT 00/M08 A3025 RMK A01 T00021077  RH  056%=      5-min Rain = 0
KPD2 130936Z 00000KT 00/M08 A3025 RMK A01 T00021076  RH  056%=      5-min Rain = 0
KPD2 130937Z 00000KT 00/M08 A3025 RMK A01 T00031076  RH  056%=      5-min Rain = 0
KPD2 130938Z 00000KT 00/M08 A3025 RMK A01 T00031075  RH  056%=      5-min Rain = 0
KPD2 130939Z 00000KT 00/M07 A3025 RMK A01 T00041074  RH  056%=      5-min Rain = 0
KPD2 130940Z 00000KT 01/M07 A3025 RMK A01 T00051073  RH  056%=      5-min Rain = 0
KPD2 130941Z 00000KT 01/M07 A3025 RMK A01 T00061074  RH  055%=      5-min Rain = 0
KPD2 130942Z 22000KT 01/M08 A3025 RMK A01 T00061075  RH  055%=      5-min Rain = 0
KPD2 130943Z 28001KT 01/M08 A3025 RMK A01 T00061075  RH  054%=      5-min Rain = 0
KPD2 130944Z 32001KT 01/M08 A3025 RMK A01 T00061077  RH  054%=      5-min Rain = 0
KPD2 130945Z 32001KT 01/M08 A3025 RMK A01 T00061080  RH  053%=      5-min Rain = 0
KPD2 130946Z 32001KT 01/M08 A3025 RMK A01 T00061079  RH  053%=      5-min Rain = 0
KPD2 130947Z 32001KT 01/M08 A3025 RMK A01 T00061077  RH  054%=      5-min Rain = 0
KPD2 130948Z 32001KT 01/M08 A3025 RMK A01 T00061078  RH  053%=      5-min Rain = 0
KPD2 130949Z 32001KT 01/M08 A3025 RMK A01 T00061080  RH  053%=      5-min Rain = 0
KPD2 130950Z 32001KT 01/M08 A3025 RMK A01 T00061081  RH  052%=      5-min Rain = 0
KPD2 130951Z 32000KT 01/M08 A3025 RMK A01 T00051083  RH  052%=      5-min Rain = 0
KPD2 130952Z 00000KT 00/M08 A3025 RMK A01 T00041083  RH  052%=      5-min Rain = 0
KPD2 130953Z 00000KT 00/M08 A3025 RMK A01 T00031083  RH  053%=      5-min Rain = 0
KPD2 130954Z 00000KT 00/M08 A3025 RMK A01 T00031081  RH  053%=      5-min Rain = 0
KPD2 130955Z 00000KT 00/M08 A3025 RMK A01 T00021081  RH  053%=      5-min Rain = 0
KPD2 130956Z 32000KT 00/M08 A3025 RMK A01 T00021082  RH  053%=      5-min Rain = 0
KPD2 130957Z 16001KT 00/M08 A3025 RMK A01 T00031082  RH  053%=      5-min Rain = 0
KPD2 130958Z 15002KT 00/M08 A3025 RMK A01 T00021081  RH  053%=      5-min Rain = 0
KPD2 130959Z 15002KT 00/M08 A3025 RMK A01 T00021082  RH  053%=      5-min Rain = 0
KPD2 131000Z 16003KT 00/M08 A3025 RMK A01 T00011082  RH  053%=      5-min Rain = 0
KPD2 131001Z 15003KT 00/08 A3025 RMK A01 T00000-83  RH  054%=      5-min Rain = 0
KPD2 131002Z 14003KT 00/08 A3025 RMK A01 T00-00-82  RH  054%=      5-min Rain = 0
KPD2 131003Z 13003KT 00/08 A3025 RMK A01 T00-00-82  RH  054%=      5-min Rain = 0
KPD2 131004Z 13003KT M00/M08 A3025 RMK A01 T10011083  RH  054%=      5-min Rain = 0
KPD2 131005Z 12002KT 00/08 A3025 RMK A01 T00-00-83  RH  054%=      5-min Rain = 0
KPD2 131006Z 11002KT M00/M08 A3025 RMK A01 T10011083  RH  054%=      5-min Rain = 0
KPD2 131007Z 11001KT 00/08 A3025 RMK A01 T00-00-83  RH  054%=      5-min Rain = 0
KPD2 131008Z 11002KT 00/08 A3025 RMK A01 T00-00-84  RH  053%=      5-min Rain = 0
KPD2 131009Z 11002KT 00/08 A3025 RMK A01 T00-00-84  RH  053%=      5-min Rain = 0
KPD2 131010Z 10002KT 00/08 A3025 RMK A01 T00-00-84  RH  053%=      5-min Rain = 0
KPD2 131011Z 11002KT 00/08 A3025 RMK A01 T00000-82  RH  054%=      5-min Rain = 0
KPD2 131012Z 11002KT 00/M08 A3025 RMK A01 T00011080  RH  055%=      5-min Rain = 0
KPD2 131013Z 12002KT 00/M08 A3025 RMK A01 T00021078  RH  055%=      5-min Rain = 0
KPD2 131014Z 11002KT 00/M08 A3025 RMK A01 T00031078  RH  055%=      5-min Rain = 0
KPD2 131015Z 10003KT 00/M08 A3025 RMK A01 T00031078  RH  054%=      5-min Rain = 0
KPD2 131016Z 11003KT 00/M08 A3025 RMK A01 T00041076  RH  055%=      5-min Rain = 0
KPD2 131017Z 11003KT 01/M08 A3025 RMK A01 T00061075  RH  055%=      5-min Rain = 0
KPD2 131018Z 11002KT 01/M08 A3025 RMK A01 T00061075  RH  054%=      5-min Rain = 0
KPD2 131019Z 11002KT 01/M08 A3025 RMK A01 T00071075  RH  054%=      5-min Rain = 0
KPD2 131020Z 12001KT 01/M08 A3025 RMK A01 T00081076  RH  053%=      5-min Rain = 0
KPD2 131021Z 14001KT 01/M08 A3025 RMK A01 T00081077  RH  053%=      5-min Rain = 0
KPD2 131022Z 14002KT 01/M08 A3025 RMK A01 T00081078  RH  053%=      5-min Rain = 0
KPD2 131023Z 16002KT 01/M08 A3025 RMK A01 T00081078  RH  053%=      5-min Rain = 0
KPD2 131024Z 17001KT 01/M08 A3025 RMK A01 T00071078  RH  053%=      5-min Rain = 0
KPD2 131025Z 18001KT 01/M08 A3025 RMK A01 T00061079  RH  053%=      5-min Rain = 0
KPD2 131026Z 18001KT 01/M08 A3025 RMK A01 T00051080  RH  053%=      5-min Rain = 0
KPD2 131027Z 18001KT 00/M08 A3025 RMK A01 T00031081  RH  053%=      5-min Rain = 0
KPD2 131028Z 19001KT 00/M08 A3025 RMK A01 T00021081  RH  054%=      5-min Rain = 0
KPD2 131029Z 17001KT 00/M08 A3025 RMK A01 T00011082  RH  054%=      5-min Rain = 0
KPD2 131030Z 18001KT 00/08 A3025 RMK A01 T00-00-82  RH  054%=      5-min Rain = 0
KPD2 131031Z 16001KT M00/M08 A3025 RMK A01 T10011082  RH  055%=      5-min Rain = 0
KPD2 131032Z 15002KT M00/M08 A3025 RMK A01 T10011081  RH  055%=      5-min Rain = 0
KPD2 131033Z 15002KT M00/M08 A3025 RMK A01 T10021082  RH  055%=      5-min Rain = 0
KPD2 131034Z 15002KT M00/M08 A3025 RMK A01 T10021082  RH  055%=      5-min Rain = 0
KPD2 131035Z 15001KT M00/M08 A3026 RMK A01 T10031081  RH  055%=      5-min Rain = 0
KPD2 131036Z 15001KT M00/M08 A3026 RMK A01 T10031082  RH  055%=      5-min Rain = 0
KPD2 131037Z 15001KT M00/M08 A3026 RMK A01 T10041082  RH  055%=      5-min Rain = 0
KPD2 131038Z 15000KT M01/M08 A3026 RMK A01 T10051083  RH  056%=      5-min Rain = 0
KPD2 131039Z 00000KT M01/M08 A3026 RMK A01 T10051082  RH  056%=      5-min Rain = 0
KPD2 131040Z 15000KT M01/M08 A3026 RMK A01 T10061083  RH  056%=      5-min Rain = 0
KPD2 131041Z 00000KT M01/M08 A3026 RMK A01 T10061083  RH  056%=      5-min Rain = 0
KPD2 131042Z 15000KT M01/M08 A3026 RMK A01 T10071084  RH  056%=      5-min Rain = 0
KPD2 131043Z 15001KT M01/M09 A3026 RMK A01 T10081085  RH  056%=      5-min Rain = 0
KPD2 131044Z 14001KT M01/M08 A3026 RMK A01 T10081084  RH  056%=      5-min Rain = 0
KPD2 131045Z 03001KT M01/M08 A3026 RMK A01 T10081082  RH  057%=      5-min Rain = 0
KPD2 131046Z 03001KT M01/M08 A3027 RMK A01 T10061080  RH  057%=      5-min Rain = 0
KPD2 131047Z 00000KT M00/M08 A3027 RMK A01 T10041079  RH  057%=      5-min Rain = 0
KPD2 131048Z 09000KT M00/M08 A3027 RMK A01 T10041080  RH  057%=      5-min Rain = 0
KPD2 131049Z 12001KT M00/M08 A3027 RMK A01 T10031079  RH  057%=      5-min Rain = 0
KPD2 131050Z 13001KT M00/M08 A3027 RMK A01 T10031080  RH  056%=      5-min Rain = 0
KPD2 131051Z 15001KT M00/M08 A3027 RMK A01 T10031080  RH  056%=      5-min Rain = 0
KPD2 131052Z 16001KT M00/M08 A3027 RMK A01 T10031080  RH  056%=      5-min Rain = 0
KPD2 131053Z 17001KT M00/M08 A3027 RMK A01 T10031081  RH  056%=      5-min Rain = 0
KPD2 131054Z 19001KT M00/M08 A3027 RMK A01 T10041082  RH  056%=      5-min Rain = 0
KPD2 131055Z 22002KT M01/M08 A3027 RMK A01 T10051082  RH  056%=      5-min Rain = 0
KPD2 131056Z 21002KT M01/M08 A3027 RMK A01 T10051082  RH  056%=      5-min Rain = 0
KPD2 131057Z 21002KT M01/M08 A3027 RMK A01 T10071083  RH  056%=      5-min Rain = 0
KPD2 131058Z 19001KT M01/M08 A3027 RMK A01 T10071084  RH  056%=      5-min Rain = 0
KPD2 131059Z 19000KT M01/M08 A3027 RMK A01 T10071083  RH  056%=      5-min Rain = 0
KPD2 131100Z 00000KT M01/M08 A3027 RMK A01 T10091084  RH  057%=      5-min Rain = 0
KPD2 131101Z 15000KT M01/M09 A3027 RMK A01 T10111087  RH  056%=      5-min Rain = 0
KPD2 131102Z 06001KT M01/M09 A3027 RMK A01 T10131090  RH  056%=      5-min Rain = 0
KPD2 131103Z 06000KT M02/M09 A3027 RMK A01 T10151091  RH  056%=      5-min Rain = 0
KPD2 131104Z 00000KT M02/M09 A3027 RMK A01 T10161090  RH  057%=      5-min Rain = 0
KPD2 131105Z 06000KT M02/M09 A3027 RMK A01 T10161089  RH  058%=      5-min Rain = 0
KPD2 131106Z 00002KT M02/M09 A3027 RMK A01 T10161087  RH  058%=      5-min Rain = 0
KPD2 131107Z 36002KT M02/M08 A3027 RMK A01 T10151084  RH  059%=      5-min Rain = 0
KPD2 131108Z 35002KT M01/M08 A3027 RMK A01 T10131082  RH  059%=      5-min Rain = 0
KPD2 131109Z 00002KT M01/M08 A3027 RMK A01 T10111081  RH  059%=      5-min Rain = 0
KPD2 131110Z 01002KT M01/M08 A3028 RMK A01 T10101082  RH  058%=      5-min Rain = 0
KPD2 131111Z 35001KT M01/M08 A3028 RMK A01 T10101083  RH  058%=      5-min Rain = 0
KPD2 131112Z 32001KT M01/M08 A3028 RMK A01 T10101084  RH  057%=      5-min Rain = 0
KPD2 131113Z 32001KT M01/M09 A3028 RMK A01 T10111086  RH  057%=      5-min Rain = 0
KPD2 131114Z 32001KT M01/M09 A3028 RMK A01 T10111085  RH  057%=      5-min Rain = 0
KPD2 131115Z 34001KT M01/M09 A3028 RMK A01 T10111086  RH  057%=      5-min Rain = 0
KPD2 131116Z 34001KT M01/M09 A3028 RMK A01 T10111087  RH  056%=      5-min Rain = 0
KPD2 131117Z 34001KT M01/M09 A3028 RMK A01 T10121089  RH  056%=      5-min Rain = 0
KPD2 131118Z 34000KT M01/M09 A3028 RMK A01 T10131090  RH  056%=      5-min Rain = 0
KPD2 131119Z 32001KT M01/M09 A3028 RMK A01 T10141090  RH  056%=      5-min Rain = 0
KPD2 131120Z 32001KT M02/M09 A3028 RMK A01 T10151090  RH  056%=      5-min Rain = 0
KPD2 131121Z 32002KT M02/M09 A3028 RMK A01 T10151091  RH  056%=      5-min Rain = 0
KPD2 131122Z 32002KT M02/M09 A3028 RMK A01 T10171092  RH  057%=      5-min Rain = 0
KPD2 131123Z 32002KT M02/M09 A3028 RMK A01 T10181092  RH  057%=      5-min Rain = 0
KPD2 131124Z 33002KT M02/M09 A3028 RMK A01 T10191092  RH  057%=      5-min Rain = 0
KPD2 131125Z 33002KT M02/M09 A3028 RMK A01 T10191090  RH  058%=      5-min Rain = 0
KPD2 131126Z 33002KT M02/M09 A3028 RMK A01 T10181089  RH  059%=      5-min Rain = 0
KPD2 131127Z 33002KT M02/M09 A3028 RMK A01 T10171086  RH  059%=      5-min Rain = 0
KPD2 131128Z 32002KT M02/M09 A3028 RMK A01 T10161086  RH  059%=      5-min Rain = 0
KPD2 131129Z 32001KT M02/M09 A3028 RMK A01 T10151086  RH  059%=      5-min Rain = 0
KPD2 131130Z 30002KT M02/M09 A3028 RMK A01 T10151086  RH  058%=      5-min Rain = 0
KPD2 131131Z 29002KT M01/M09 A3028 RMK A01 T10141086  RH  058%=      5-min Rain = 0
KPD2 131132Z 29002KT M01/M09 A3028 RMK A01 T10141085  RH  058%=      5-min Rain = 0
KPD2 131133Z 29002KT M01/M09 A3028 RMK A01 T10131085  RH  058%=      5-min Rain = 0
KPD2 131134Z 29002KT M01/M09 A3028 RMK A01 T10121085  RH  058%=      5-min Rain = 0
KPD2 131135Z 29002KT M01/M09 A3028 RMK A01 T10121086  RH  057%=      5-min Rain = 0
KPD2 131136Z 29002KT M01/M09 A3028 RMK A01 T10121086  RH  057%=      5-min Rain = 0
KPD2 131137Z 30002KT M01/M09 A3028 RMK A01 T10121086  RH  057%=      5-min Rain = 0
KPD2 131138Z 30002KT M01/M09 A3028 RMK A01 T10121085  RH  057%=      5-min Rain = 0
KPD2 131139Z 30002KT M01/M09 A3028 RMK A01 T10111085  RH  057%=      5-min Rain = 0
KPD2 131140Z 30002KT M01/M08 A3028 RMK A01 T10101084  RH  057%=      5-min Rain = 0
KPD2 131141Z 30002KT M01/M08 A3028 RMK A01 T10091083  RH  057%=      5-min Rain = 0
KPD2 131142Z 30002KT M01/M08 A3028 RMK A01 T10081082  RH  057%=      5-min Rain = 0
KPD2 131143Z 30002KT M01/M08 A3028 RMK A01 T10071083  RH  057%=      5-min Rain = 0
KPD2 131144Z 30002KT M01/M08 A3028 RMK A01 T10071083  RH  057%=      5-min Rain = 0
KPD2 131145Z 29001KT M01/M08 A3028 RMK A01 T10071083  RH  056%=      5-min Rain = 0
KPD2 131146Z 29001KT M01/M08 A3028 RMK A01 T10071084  RH  056%=      5-min Rain = 0
KPD2 131147Z 29001KT M01/M08 A3028 RMK A01 T10071084  RH  056%=      5-min Rain = 0
KPD2 131148Z 29001KT M01/M08 A3028 RMK A01 T10071084  RH  056%=      5-min Rain = 0
KPD2 131149Z 31001KT M01/M08 A3028 RMK A01 T10071084  RH  056%=      5-min Rain = 0
KPD2 131150Z 33001KT M01/M08 A3028 RMK A01 T10061084  RH  056%=      5-min Rain = 0
KPD2 131151Z 34001KT M01/M08 A3028 RMK A01 T10061083  RH  056%=      5-min Rain = 0
KPD2 131152Z 34001KT M01/M08 A3028 RMK A01 T10061083  RH  056%=      5-min Rain = 0
KPD2 131153Z 33002KT M01/M08 A3028 RMK A01 T10061082  RH  056%=      5-min Rain = 0
KPD2 131154Z 34001KT M01/M08 A3028 RMK A01 T10051081  RH  056%=      5-min Rain = 0
KPD2 131155Z 34002KT M00/M08 A3028 RMK A01 T10041081  RH  056%=      5-min Rain = 0
KPD2 131156Z 33002KT M00/M08 A3028 RMK A01 T10041081  RH  056%=      5-min Rain = 0
KPD2 131157Z 33001KT M00/M08 A3028 RMK A01 T10041081  RH  056%=      5-min Rain = 0
KPD2 131158Z 33001KT M00/M08 A3028 RMK A01 T10031081  RH  056%=      5-min Rain = 0
KPD2 131159Z 34001KT M00/M08 A3028 RMK A01 T10021081  RH  056%=      5-min Rain = 0
KPD2 131200Z 34001KT M00/M08 A3028 RMK A01 T10021081  RH  055%=      5-min Rain = 0
KPD2 131201Z 33001KT M00/M08 A3028 RMK A01 T10021081  RH  055%=      5-min Rain = 0
KPD2 131202Z 33001KT M00/M08 A3028 RMK A01 T10021080  RH  056%=      5-min Rain = 0
KPD2 131203Z 33001KT M00/M08 A3028 RMK A01 T10021080  RH  056%=      5-min Rain = 0
KPD2 131204Z 33001KT M00/M08 A3028 RMK A01 T10021081  RH  055%=      5-min Rain = 0
KPD2 131205Z 33000KT M00/M08 A3028 RMK A01 T10031082  RH  055%=      5-min Rain = 0
KPD2 131206Z 00000KT M00/M08 A3028 RMK A01 T10031084  RH  054%=      5-min Rain = 0
KPD2 131207Z 00000KT M00/M09 A3028 RMK A01 T10041085  RH  054%=      5-min Rain = 0
KPD2 131208Z 00000KT M01/M09 A3028 RMK A01 T10051086  RH  054%=      5-min Rain = 0
KPD2 131209Z 00000KT M01/M09 A3028 RMK A01 T10061087  RH  054%=      5-min Rain = 0
KPD2 131210Z 00000KT M01/M09 A3028 RMK A01 T10071087  RH  054%=      5-min Rain = 0
KPD2 131211Z 00000KT M01/M09 A3028 RMK A01 T10081088  RH  055%=      5-min Rain = 0
KPD2 131212Z 00000KT M01/M09 A3028 RMK A01 T10081088  RH  055%=      5-min Rain = 0
KPD2 131213Z 00000KT M01/M09 A3028 RMK A01 T10091089  RH  055%=      5-min Rain = 0
KPD2 131214Z 00000KT M01/M09 A3028 RMK A01 T10091088  RH  055%=      5-min Rain = 0
KPD2 131215Z 00000KT M01/M09 A3028 RMK A01 T10101088  RH  055%=      5-min Rain = 0
KPD2 131216Z 00000KT M01/M09 A3028 RMK A01 T10111089  RH  055%=      5-min Rain = 0
KPD2 131217Z 00000KT M01/M09 A3028 RMK A01 T10111088  RH  056%=      5-min Rain = 0
KPD2 131218Z 00000KT M01/M09 A3028 RMK A01 T10121088  RH  056%=      5-min Rain = 0
KPD2 131219Z 33000KT M01/M09 A3029 RMK A01 T10121087  RH  056%=      5-min Rain = 0
KPD2 131220Z 33001KT M01/M09 A3029 RMK A01 T10121087  RH  057%=      5-min Rain = 0
KPD2 131221Z 33001KT M01/M09 A3029 RMK A01 T10121086  RH  057%=      5-min Rain = 0
KPD2 131222Z 33000KT M01/M09 A3029 RMK A01 T10121086  RH  057%=      5-min Rain = 0
KPD2 131223Z 00000KT M01/M09 A3029 RMK A01 T10111086  RH  057%=      5-min Rain = 0
KPD2 131224Z 33000KT M01/M09 A3029 RMK A01 T10121086  RH  057%=      5-min Rain = 0
KPD2 131225Z 33000KT M01/M09 A3029 RMK A01 T10121087  RH  057%=      5-min Rain = 0
KPD2 131226Z 00000KT M01/M09 A3029 RMK A01 T10121086  RH  057%=      5-min Rain = 0
KPD2 131227Z 00000KT M01/M09 A3029 RMK A01 T10131086  RH  057%=      5-min Rain = 0
KPD2 131228Z 33000KT M01/M09 A3029 RMK A01 T10131086  RH  058%=      5-min Rain = 0
KPD2 131229Z 33001KT M01/M09 A3029 RMK A01 T10121085  RH  058%=      5-min Rain = 0
KPD2 131230Z 33001KT M01/M08 A303 RMK A01 T10101082  RH  058%=      5-min Rain = 0
KPD2 131231Z 33001KT M01/M08 A303 RMK A01 T10091082  RH  058%=      5-min Rain = 0
KPD2 131232Z 33001KT M01/M08 A303 RMK A01 T10091083  RH  057%=      5-min Rain = 0
KPD2 131233Z 30001KT M01/M08 A303 RMK A01 T10081083  RH  057%=      5-min Rain = 0
KPD2 131234Z 29001KT M01/M08 A303 RMK A01 T10071084  RH  056%=      5-min Rain = 0
KPD2 131235Z 28002KT M01/M08 A303 RMK A01 T10061084  RH  056%=      5-min Rain = 0
KPD2 131236Z 27001KT M01/M08 A303 RMK A01 T10061084  RH  056%=      5-min Rain = 0
KPD2 131237Z 27001KT M01/M09 A303 RMK A01 T10071085  RH  056%=      5-min Rain = 0
KPD2 131238Z 27000KT M01/M09 A303 RMK A01 T10071085  RH  056%=      5-min Rain = 0
KPD2 131239Z 29001KT M01/M09 A303 RMK A01 T10071085  RH  056%=      5-min Rain = 0
KPD2 131240Z 29002KT M01/M09 A303 RMK A01 T10071086  RH  055%=      5-min Rain = 0
KPD2 131241Z 29001KT M01/M09 A303 RMK A01 T10081087  RH  055%=      5-min Rain = 0
KPD2 131242Z 30001KT M01/M09 A303 RMK A01 T10081088  RH  055%=      5-min Rain = 0
KPD2 131243Z 30001KT M01/M09 A303 RMK A01 T10091088  RH  055%=      5-min Rain = 0
KPD2 131244Z 30002KT M01/M09 A303 RMK A01 T10101089  RH  055%=      5-min Rain = 0
KPD2 131245Z 30002KT M01/M09 A303 RMK A01 T10101089  RH  055%=      5-min Rain = 0
KPD2 131246Z 30001KT M01/M09 A303 RMK A01 T10101088  RH  055%=      5-min Rain = 0
KPD2 131247Z 30001KT M01/M09 A303 RMK A01 T10101088  RH  055%=      5-min Rain = 0
KPD2 131248Z 30000KT M01/M09 A303 RMK A01 T10101088  RH  056%=      5-min Rain = 0
KPD2 131249Z 00000KT M01/M09 A303 RMK A01 T10101088  RH  056%=      5-min Rain = 0
KPD2 131250Z 00000KT M01/M09 A303 RMK A01 T10101087  RH  056%=      5-min Rain = 0
KPD2 131251Z 30000KT M01/M09 A303 RMK A01 T10101086  RH  056%=      5-min Rain = 0
KPD2 131252Z 30001KT M01/M09 A303 RMK A01 T10091086  RH  056%=      5-min Rain = 0
KPD2 131253Z 30001KT M01/M09 A303 RMK A01 T10091086  RH  056%=      5-min Rain = 0
KPD2 131254Z 00000KT M01/M09 A303 RMK A01 T10081085  RH  056%=      5-min Rain = 0
KPD2 131255Z 00000KT M01/M09 A303 RMK A01 T10071085  RH  055%=      5-min Rain = 0
KPD2 131256Z 14001KT M01/M09 A303 RMK A01 T10071086  RH  055%=      5-min Rain = 0
KPD2 131257Z 15002KT M01/M09 A303 RMK A01 T10061085  RH  055%=      5-min Rain = 0
KPD2 131258Z 14002KT M01/M09 A303 RMK A01 T10051085  RH  055%=      5-min Rain = 0
KPD2 131259Z 16002KT M01/M09 A303 RMK A01 T10051085  RH  055%=      5-min Rain = 0
KPD2 131300Z 16001KT M01/M09 A303 RMK A01 T10051086  RH  054%=      5-min Rain = 0
KPD2 131301Z 16002KT M01/M09 A303 RMK A01 T10051087  RH  054%=      5-min Rain = 0
KPD2 131302Z 16002KT M01/M09 A3031 RMK A01 T10071088  RH  054%=      5-min Rain = 0
KPD2 131303Z 16002KT M01/M09 A3031 RMK A01 T10081089  RH  054%=      5-min Rain = 0
KPD2 131304Z 15002KT M01/M09 A3031 RMK A01 T10091089  RH  055%=      5-min Rain = 0
KPD2 131305Z 13002KT M01/M09 A3031 RMK A01 T10101089  RH  055%=      5-min Rain = 0
KPD2 131306Z 12003KT M01/M09 A3031 RMK A01 T10101088  RH  056%=      5-min Rain = 0
KPD2 131307Z 13002KT M01/M09 A3031 RMK A01 T10111088  RH  056%=      5-min Rain = 0
KPD2 131308Z 13002KT M01/M09 A3031 RMK A01 T10111089  RH  056%=      5-min Rain = 0
KPD2 131309Z 12002KT M01/M09 A3031 RMK A01 T10111089  RH  055%=      5-min Rain = 0
KPD2 131310Z 12001KT M01/M09 A3031 RMK A01 T10111089  RH  055%=      5-min Rain = 0
KPD2 131311Z 13000KT M01/M09 A3031 RMK A01 T10111088  RH  056%=      5-min Rain = 0
KPD2 131312Z 13000KT M01/M09 A3031 RMK A01 T10111085  RH  057%=      5-min Rain = 0
KPD2 131313Z 00000KT M01/M09 A3031 RMK A01 T10111085  RH  057%=      5-min Rain = 0
KPD2 131314Z 00000KT M01/M09 A3031 RMK A01 T10101086  RH  056%=      5-min Rain = 0
KPD2 131315Z 00000KT M01/M09 A3032 RMK A01 T10101087  RH  056%=      5-min Rain = 0
KPD2 131316Z 00000KT M01/M09 A3032 RMK A01 T10091085  RH  056%=      5-min Rain = 0
KPD2 131317Z 00000KT M01/M08 A3032 RMK A01 T10081084  RH  056%=      5-min Rain = 0
KPD2 131318Z 13000KT M01/M09 A3032 RMK A01 T10081085  RH  056%=      5-min Rain = 0
KPD2 131319Z 13001KT M01/M08 A3032 RMK A01 T10071084  RH  056%=      5-min Rain = 0
KPD2 131320Z 15001KT M01/M08 A3032 RMK A01 T10061082  RH  056%=      5-min Rain = 0
KPD2 131321Z 14002KT M01/M08 A3032 RMK A01 T10061082  RH  057%=      5-min Rain = 0
KPD2 131322Z 15002KT M01/M08 A3032 RMK A01 T10051081  RH  057%=      5-min Rain = 0
KPD2 131323Z 15002KT M00/M08 A3032 RMK A01 T10041081  RH  056%=      5-min Rain = 0
KPD2 131324Z 16001KT M00/M08 A3032 RMK A01 T10041082  RH  056%=      5-min Rain = 0
KPD2 131325Z 17001KT M00/M08 A3032 RMK A01 T10031081  RH  055%=      5-min Rain = 0
KPD2 131326Z 17001KT M00/M08 A3032 RMK A01 T10021083  RH  055%=      5-min Rain = 0
KPD2 131327Z 17001KT M00/M09 A3032 RMK A01 T10031085  RH  054%=      5-min Rain = 0
KPD2 131328Z 16001KT M00/M09 A3032 RMK A01 T10031086  RH  054%=      5-min Rain = 0
KPD2 131329Z 15001KT M00/M09 A3032 RMK A01 T10031085  RH  054%=      5-min Rain = 0
KPD2 131330Z 14002KT M00/M09 A3032 RMK A01 T10041085  RH  054%=      5-min Rain = 0
KPD2 131331Z 14002KT M00/M09 A3032 RMK A01 T10041085  RH  054%=      5-min Rain = 0
KPD2 131332Z 13002KT M00/M08 A3032 RMK A01 T10041084  RH  055%=      5-min Rain = 0
KPD2 131333Z 12002KT M00/M08 A3032 RMK A01 T10041084  RH  055%=      5-min Rain = 0
KPD2 131334Z 13003KT M00/M08 A3032 RMK A01 T10031084  RH  055%=      5-min Rain = 0
KPD2 131335Z 12003KT M00/M08 A3032 RMK A01 T10031084  RH  054%=      5-min Rain = 0
KPD2 131336Z 13002KT M00/M08 A3032 RMK A01 T10021084  RH  054%=      5-min Rain = 0
KPD2 131337Z 12002KT M00/M08 A3032 RMK A01 T10021084  RH  054%=      5-min Rain = 0
KPD2 131338Z 12003KT M00/M08 A3032 RMK A01 T10011083  RH  054%=      5-min Rain = 0
KPD2 131339Z 12002KT 00/08 A3033 RMK A01 T00-00-81  RH  054%=      5-min Rain = 0
KPD2 131340Z 11001KT 00/M08 A3033 RMK A01 T00011080  RH  054%=      5-min Rain = 0
KPD2 131341Z 13002KT 00/M08 A3033 RMK A01 T00021079  RH  055%=      5-min Rain = 0
KPD2 131342Z 13002KT 00/M08 A3033 RMK A01 T00031078  RH  054%=      5-min Rain = 0
KPD2 131343Z 13002KT 00/M08 A3033 RMK A01 T00041077  RH  054%=      5-min Rain = 0
KPD2 131344Z 14003KT 01/M08 A3033 RMK A01 T00061077  RH  054%=      5-min Rain = 0
KPD2 131345Z 14003KT 01/M08 A3033 RMK A01 T00081077  RH  053%=      5-min Rain = 0
KPD2 131346Z 14003KT 01/M08 A3033 RMK A01 T00081078  RH  053%=      5-min Rain = 0
KPD2 131347Z 14003KT 01/M08 A3033 RMK A01 T00091078  RH  052%=      5-min Rain = 0
KPD2 131348Z 15002KT 01/M08 A3033 RMK A01 T00091078  RH  052%=      5-min Rain = 0
KPD2 131349Z 15003KT 01/M08 A3033 RMK A01 T00101077  RH  052%=      5-min Rain = 0
KPD2 131350Z 15002KT 01/M08 A3033 RMK A01 T00111076  RH  052%=      5-min Rain = 0
KPD2 131351Z 15003KT 01/M08 A3033 RMK A01 T00121076  RH  052%=      5-min Rain = 0
KPD2 131352Z 16003KT 01/M08 A3033 RMK A01 T00131076  RH  052%=      5-min Rain = 0
KPD2 131353Z 15003KT 01/M08 A3033 RMK A01 T00131076  RH  051%=      5-min Rain = 0
KPD2 131354Z 16003KT 01/M08 A3033 RMK A01 T00141076  RH  051%=      5-min Rain = 0
KPD2 131355Z 16003KT 02/M08 A3033 RMK A01 T00151076  RH  051%=      5-min Rain = 0
KPD2 131356Z 16004KT 02/M08 A3033 RMK A01 T00151076  RH  051%=      5-min Rain = 0
KPD2 131357Z 16003KT 02/M08 A3033 RMK A01 T00151076  RH  051%=      5-min Rain = 0
KPD2 131358Z 15004KT 02/M08 A3033 RMK A01 T00151076  RH  051%=      5-min Rain = 0
KPD2 131359Z 16003KT 02/M08 A3034 RMK A01 T00151076  RH  051%=      5-min Rain = 0
KPD2 131400Z 15004KT 02/M08 A3034 RMK A01 T00151076  RH  051%=      5-min Rain = 0
KPD2 131401Z 15003KT 02/M08 A3034 RMK A01 T00151075  RH  051%=      5-min Rain = 0
KPD2 131402Z 15003KT 02/M08 A3034 RMK A01 T00151075  RH  051%=      5-min Rain = 0
KPD2 131403Z 15004KT 02/M07 A3034 RMK A01 T00151074  RH  051%=      5-min Rain = 0
KPD2 131404Z 15003KT 02/M07 A3034 RMK A01 T00151074  RH  051%=      5-min Rain = 0
KPD2 131405Z 15003KT 02/M07 A3034 RMK A01 T00161073  RH  052%=      5-min Rain = 0
KPD2 131406Z 14003KT 02/M07 A3034 RMK A01 T00161072  RH  052%=      5-min Rain = 0
KPD2 131407Z 14004KT 02/M07 A3034 RMK A01 T00171072  RH  052%=      5-min Rain = 0
KPD2 131408Z 14004KT 02/M07 A3034 RMK A01 T00171071  RH  052%=      5-min Rain = 0
KPD2 131409Z 13004KT 02/M07 A3034 RMK A01 T00181070  RH  052%=      5-min Rain = 0
KPD2 131410Z 13004KT 02/M07 A3034 RMK A01 T00191070  RH  052%=      5-min Rain = 0
KPD2 131411Z 13004KT 02/M07 A3034 RMK A01 T00201069  RH  052%=      5-min Rain = 0
KPD2 131412Z 13004KT 02/M07 A3034 RMK A01 T00201068  RH  052%=      5-min Rain = 0
KPD2 131413Z 14003KT 02/M07 A3034 RMK A01 T00211068  RH  052%=      5-min Rain = 0
KPD2 131414Z 13004KT 02/M07 A3034 RMK A01 T00221068  RH  052%=      5-min Rain = 0
KPD2 131415Z 12004KT 02/M07 A3034 RMK A01 T00231067  RH  052%=      5-min Rain = 0
KPD2 131416Z 13004KT 02/M07 A3034 RMK A01 T00241066  RH  051%=      5-min Rain = 0
KPD2 131417Z 13004KT 03/M07 A3034 RMK A01 T00251065  RH  051%=      5-min Rain = 0
KPD2 131418Z 13004KT 03/M06 A3034 RMK A01 T00271064  RH  051%=      5-min Rain = 0
KPD2 131419Z 13004KT 03/M06 A3034 RMK A01 T00281064  RH  051%=      5-min Rain = 0
KPD2 131420Z 13004KT 03/M06 A3034 RMK A01 T00301063  RH  051%=      5-min Rain = 0
KPD2 131421Z 13004KT 03/M06 A3035 RMK A01 T00321062  RH  050%=      5-min Rain = 0
KPD2 131422Z 12004KT 03/M06 A3035 RMK A01 T00331061  RH  050%=      5-min Rain = 0
KPD2 131423Z 12003KT 03/M06 A3035 RMK A01 T00341061  RH  050%=      5-min Rain = 0
KPD2 131424Z 12004KT 04/M06 A3035 RMK A01 T00361060  RH  049%=      5-min Rain = 0
KPD2 131425Z 12005KT 04/M06 A3035 RMK A01 T00371060  RH  049%=      5-min Rain = 0
KPD2 131426Z 12004KT 04/M06 A3035 RMK A01 T00381059  RH  049%=      5-min Rain = 0
KPD2 131427Z 12004KT 04/M06 A3035 RMK A01 T00391059  RH  049%=      5-min Rain = 0
KPD2 131428Z 12004KT 04/M06 A3035 RMK A01 T00391059  RH  049%=      5-min Rain = 0
KPD2 131429Z 12004KT 04/M06 A3035 RMK A01 T00401058  RH  049%=      5-min Rain = 0
KPD2 131430Z 11005KT 04/M06 A3035 RMK A01 T00411059  RH  048%=      5-min Rain = 0
KPD2 131431Z 13004KT 04/M06 A3035 RMK A01 T00411059  RH  048%=      5-min Rain = 0
KPD2 131432Z 13005KT 04/M06 A3035 RMK A01 T00411059  RH  048%=      5-min Rain = 0
KPD2 131433Z 13005KT 04/M06 A3035 RMK A01 T00411059  RH  048%=      5-min Rain = 0
KPD2 131434Z 12004KT 04/M06 A3035 RMK A01 T00411059  RH  048%=      5-min Rain = 0
KPD2 131435Z 13005KT 04/M06 A3035 RMK A01 T00411059  RH  048%=      5-min Rain = 0
KPD2 131436Z 13006KT 04/M06 A3035 RMK A01 T00401059  RH  048%=      5-min Rain = 0
KPD2 131437Z 13004KT 04/M06 A3035 RMK A01 T00411059  RH  048%=      5-min Rain = 0
KPD2 131438Z 13004KT 04/M06 A3035 RMK A01 T00411058  RH  048%=      5-min Rain = 0
KPD2 131439Z 12005KT 04/M06 A3035 RMK A01 T00421058  RH  048%=      5-min Rain = 0
KPD2 131440Z 14004KT 04/M06 A3035 RMK A01 T00421058  RH  048%=      5-min Rain = 0
KPD2 131441Z 14005KT 04/M06 A3035 RMK A01 T00431058  RH  048%=      5-min Rain = 0
KPD2 131442Z 14005KT 04/M06 A3035 RMK A01 T00431058  RH  048%=      5-min Rain = 0
KPD2 131443Z 14006KT 04/M06 A3035 RMK A01 T00441058  RH  047%=      5-min Rain = 0
KPD2 131444Z 14004KT 04/M06 A3035 RMK A01 T00441059  RH  047%=      5-min Rain = 0
KPD2 131445Z 14004KT 04/M06 A3035 RMK A01 T00441059  RH  047%=      5-min Rain = 0
KPD2 131446Z 14005KT 04/M06 A3035 RMK A01 T00441059  RH  047%=      5-min Rain = 0
KPD2 131447Z 13005KT 05/M06 A3035 RMK A01 T00451059  RH  047%=      5-min Rain = 0
KPD2 131448Z 14005KT 05/M06 A3035 RMK A01 T00451059  RH  047%=      5-min Rain = 0
KPD2 131449Z 15005KT 05/M06 A3035 RMK A01 T00461059  RH  047%=      5-min Rain = 0
KPD2 131450Z 14004KT 05/M06 A3035 RMK A01 T00461059  RH  046%=      5-min Rain = 0
KPD2 131451Z 13005KT 05/M06 A3035 RMK A01 T00471059  RH  046%=      5-min Rain = 0
KPD2 131452Z 14005KT 05/M06 A3035 RMK A01 T00481058  RH  046%=      5-min Rain = 0
KPD2 131453Z 13005KT 05/M06 A3035 RMK A01 T00491059  RH  046%=      5-min Rain = 0
KPD2 131454Z 15005KT 05/M06 A3035 RMK A01 T00511058  RH  045%=      5-min Rain = 0
KPD2 131455Z 15005KT 05/M06 A3035 RMK A01 T00521058  RH  045%=      5-min Rain = 0
KPD2 131456Z 15007KT 05/M06 A3035 RMK A01 T00531058  RH  044%=      5-min Rain = 0
KPD2 131457Z 14007KT 05/M06 A3035 RMK A01 T00541059  RH  044%=      5-min Rain = 0
KPD2 131458Z 14008KT 05/M06 A3035 RMK A01 T00541059  RH  044%=      5-min Rain = 0
KPD2 131459Z 15006KT 05/M06 A3035 RMK A01 T00541059  RH  044%=      5-min Rain = 0
KPD2 131500Z 14006KT 06/M06 A3035 RMK A01 T00551058  RH  044%=      5-min Rain = 0
KPD2 131501Z 13006KT 06/M06 A3035 RMK A01 T00571058  RH  044%=      5-min Rain = 0
KPD2 131502Z 13007KT 06/M06 A3035 RMK A01 T00591057  RH  043%=      5-min Rain = 0
KPD2 131503Z 13006KT 06/M06 A3035 RMK A01 T00601057  RH  043%=      5-min Rain = 0
KPD2 131504Z 12007KT 06/M06 A3035 RMK A01 T00611057  RH  042%=      5-min Rain = 0
KPD2 131505Z 12007KT 06/M06 A3035 RMK A01 T00621058  RH  042%=      5-min Rain = 0
KPD2 131506Z 13007KT 06/M06 A3035 RMK A01 T00631057  RH  042%=      5-min Rain = 0
KPD2 131507Z 14007KT 06/M06 A3035 RMK A01 T00631058  RH  041%=      5-min Rain = 0
KPD2 131508Z 12006KT 06/M06 A3035 RMK A01 T00631058  RH  042%=      5-min Rain = 0
KPD2 131509Z 14007KT 06/M06 A3035 RMK A01 T00641057  RH  042%=      5-min Rain = 0
KPD2 131510Z 14007KT 06/M06 A3035 RMK A01 T00641058  RH  041%=      5-min Rain = 0
KPD2 131511Z 13009KT 06/M06 A3035 RMK A01 T00641058  RH  041%=      5-min Rain = 0
KPD2 131512Z 13007KT 06/M06 A3035 RMK A01 T00631058  RH  042%=      5-min Rain = 0
KPD2 131513Z 14008KT 06/M06 A3035 RMK A01 T00631057  RH  042%=      5-min Rain = 0
KPD2 131514Z 13008KT 06/M06 A3035 RMK A01 T00631057  RH  042%=      5-min Rain = 0
KPD2 131515Z 12008KT 06/M06 A3035 RMK A01 T00631057  RH  042%=      5-min Rain = 0
KPD2 131516Z 12008KT 06/M06 A3035 RMK A01 T00631058  RH  042%=      5-min Rain = 0
KPD2 131517Z 12007KT 06/M06 A3035 RMK A01 T00631058  RH  042%=      5-min Rain = 0
KPD2 131518Z 12007KT 06/M06 A3035 RMK A01 T00641057  RH  042%=      5-min Rain = 0
KPD2 131519Z 13008KT 07/M06 A3035 RMK A01 T00651057  RH  041%=      5-min Rain = 0
KPD2 131520Z 13007KT 07/M06 A3035 RMK A01 T00651057  RH  041%=      5-min Rain = 0
KPD2 131521Z 13008KT 07/M06 A3035 RMK A01 T00651057  RH  041%=      5-min Rain = 0
KPD2 131522Z 12007KT 07/M06 A3035 RMK A01 T00661058  RH  041%=      5-min Rain = 0
KPD2 131523Z 11009KT 07/M06 A3035 RMK A01 T00661058  RH  041%=      5-min Rain = 0
KPD2 131524Z 12010KT 07/M06 A3035 RMK A01 T00661058  RH  041%=      5-min Rain = 0
KPD2 131525Z 14008KT 07/M06 A3035 RMK A01 T00651058  RH  041%=      5-min Rain = 0
KPD2 131526Z 15008KT 07/M06 A3035 RMK A01 T00661058  RH  041%=      5-min Rain = 0
KPD2 131527Z 14008KT 07/M06 A3035 RMK A01 T00651058  RH  041%=      5-min Rain = 0
KPD2 131528Z 14008KT 07/M06 A3035 RMK A01 T00651059  RH  041%=      5-min Rain = 0
KPD2 131529Z 13009KT 07/M06 A3035 RMK A01 T00651058  RH  041%=      5-min Rain = 0
KPD2 131530Z 13010KT 07/M06 A3035 RMK A01 T00661058  RH  041%=      5-min Rain = 0
KPD2 131531Z 14009KT 07/M06 A3035 RMK A01 T00671058  RH  040%=      5-min Rain = 0
KPD2 131532Z 14008KT 07/M06 A3035 RMK A01 T00671058  RH  040%=      5-min Rain = 0
KPD2 131533Z 13007KT 07/M06 A3035 RMK A01 T00681058  RH  040%=      5-min Rain = 0
KPD2 131534Z 13009KT 07/M06 A3035 RMK A01 T00681059  RH  040%=      5-min Rain = 0
KPD2 131535Z 14007KT 07/M06 A3035 RMK A01 T00691058  RH  040%=      5-min Rain = 0
KPD2 131536Z 14008KT 07/M06 A3035 RMK A01 T00711058  RH  039%=      5-min Rain = 0
KPD2 131537Z 14010KT 07/M06 A3035 RMK A01 T00701060  RH  039%=      5-min Rain = 0
KPD2 131538Z 14007KT 07/M06 A3035 RMK A01 T00691060  RH  039%=      5-min Rain = 0
KPD2 131539Z 13006KT 07/M06 A3035 RMK A01 T00701058  RH  040%=      5-min Rain = 0
KPD2 131540Z 13008KT 07/M06 A3035 RMK A01 T00711058  RH  039%=      5-min Rain = 0
KPD2 131541Z 14007KT 07/M06 A3035 RMK A01 T00711058  RH  039%=      5-min Rain = 0
KPD2 131542Z 13008KT 07/M06 A3035 RMK A01 T00711059  RH  039%=      5-min Rain = 0
KPD2 131543Z 12006KT 07/M06 A3035 RMK A01 T00711059  RH  039%=      5-min Rain = 0
KPD2 131544Z 12007KT 07/M06 A3035 RMK A01 T00731058  RH  039%=      5-min Rain = 0
KPD2 131545Z 12005KT 07/M06 A3035 RMK A01 T00741058  RH  039%=      5-min Rain = 0
KPD2 131546Z 12006KT 08/M06 A3035 RMK A01 T00751058  RH  038%=      5-min Rain = 0
KPD2 131547Z 13004KT 08/M06 A3035 RMK A01 T00771056  RH  038%=      5-min Rain = 0
KPD2 131548Z 11007KT 08/M06 A3035 RMK A01 T00801056  RH  038%=      5-min Rain = 0
KPD2 131549Z 12007KT 08/M06 A3035 RMK A01 T00821056  RH  037%=      5-min Rain = 0
KPD2 131550Z 11008KT 08/M06 A3035 RMK A01 T00831057  RH  037%=      5-min Rain = 0
KPD2 131551Z 12005KT 08/M06 A3035 RMK A01 T00831057  RH  037%=      5-min Rain = 0
KPD2 131552Z 12007KT 08/M06 A3035 RMK A01 T00841057  RH  036%=      5-min Rain = 0
KPD2 131553Z 13006KT 08/M06 A3035 RMK A01 T00831058  RH  036%=      5-min Rain = 0
KPD2 131554Z 14009KT 08/M06 A3035 RMK A01 T00841057  RH  036%=      5-min Rain = 0
KPD2 131555Z 11009KT 08/M06 A3035 RMK A01 T00831058  RH  036%=      5-min Rain = 0
KPD2 131556Z 13008KT 08/M06 A3035 RMK A01 T00831057  RH  036%=      5-min Rain = 0
KPD2 131557Z 13009KT 09/M06 A3035 RMK A01 T00851056  RH  036%=      5-min Rain = 0
KPD2 131558Z 15008KT 09/M06 A3035 RMK A01 T00871056  RH  036%=      5-min Rain = 0
KPD2 131559Z 14009KT 09/M06 A3035 RMK A01 T00881056  RH  035%=      5-min Rain = 0
KPD2 131600Z 14011KT 09/M06 A3035 RMK A01 T00891056  RH  035%=      5-min Rain = 0
KPD2 131601Z 14008KT 09/M06 A3035 RMK A01 T00881057  RH  035%=      5-min Rain = 0
KPD2 131602Z 14008G13KT 09/M06 A3036 RMK A01 T00871057  RH  036%=      5-min Rain = 0
KPD2 131603Z 13011KT 09/M06 A3036 RMK A01 T00891056  RH  035%=      5-min Rain = 0
KPD2 131604Z 13009KT 09/M06 A3036 RMK A01 T00891057  RH  035%=      5-min Rain = 0
KPD2 131605Z 14010KT 09/M06 A3036 RMK A01 T00901057  RH  035%=      5-min Rain = 0
KPD2 131606Z 13008KT 09/M06 A3036 RMK A01 T00911057  RH  035%=      5-min Rain = 0
KPD2 131607Z 11008KT 09/M06 A3036 RMK A01 T00891057  RH  035%=      5-min Rain = 0
KPD2 131608Z 12010KT 09/M06 A3036 RMK A01 T00901057  RH  035%=      5-min Rain = 0
KPD2 131609Z 11007G13KT 09/M06 A3036 RMK A01 T00921057  RH  035%=      5-min Rain = 0
KPD2 131610Z 12008KT 09/M06 A3036 RMK A01 T00941056  RH  034%=      5-min Rain = 0
KPD2 131611Z 13010KT 10/M06 A3036 RMK A01 T00961056  RH  034%=      5-min Rain = 0
KPD2 131612Z 13010KT 10/M06 A3036 RMK A01 T00951057  RH  034%=      5-min Rain = 0
KPD2 131613Z 13008KT 09/M06 A3036 RMK A01 T00941058  RH  034%=      5-min Rain = 0
KPD2 131614Z 13012KT 09/M06 A3036 RMK A01 T00931058  RH  034%=      5-min Rain = 0
KPD2 131615Z 13012KT 09/M06 A3036 RMK A01 T00931058  RH  034%=      5-min Rain = 0
KPD2 131616Z 12008KT 09/M06 A3036 RMK A01 T00911058  RH  034%=      5-min Rain = 0
KPD2 131617Z 10010KT 09/M06 A3036 RMK A01 T00911058  RH  034%=      5-min Rain = 0
KPD2 131618Z 13009KT 09/M06 A3036 RMK A01 T00931057  RH  034%=      5-min Rain = 0
KPD2 131619Z 13009KT 10/M06 A3036 RMK A01 T00951056  RH  034%=      5-min Rain = 0
KPD2 131620Z 13008KT 10/M06 A3036 RMK A01 T00961057  RH  034%=      5-min Rain = 0
KPD2 131621Z 14009KT 10/M06 A3036 RMK A01 T00961056  RH  034%=      5-min Rain = 0
KPD2 131622Z 13009KT 10/M06 A3036 RMK A01 T00971056  RH  033%=      5-min Rain = 0
KPD2 131623Z 13010KT 10/M06 A3036 RMK A01 T00971057  RH  033%=      5-min Rain = 0
KPD2 131624Z 15013KT 10/M06 A3036 RMK A01 T00971057  RH  033%=      5-min Rain = 0
KPD2 131625Z 14008KT 09/M06 A3036 RMK A01 T00941059  RH  034%=      5-min Rain = 0
KPD2 131626Z 15007KT 09/M06 A3036 RMK A01 T00941058  RH  034%=      5-min Rain = 0
KPD2 131627Z 13007KT 10/M06 A3036 RMK A01 T00961056  RH  034%=      5-min Rain = 0
KPD2 131628Z 12009KT 10/M05 A3036 RMK A01 T01001054  RH  033%=      5-min Rain = 0
KPD2 131629Z 11008KT 11/M05 A3036 RMK A01 T01051054  RH  032%=      5-min Rain = 0
KPD2 131630Z 13010KT 11/M06 A3036 RMK A01 T01071056  RH  031%=      5-min Rain = 0
KPD2 131631Z 12009KT 11/M06 A3036 RMK A01 T01051057  RH  031%=      5-min Rain = 0
KPD2 131632Z 11010KT 11/M06 A3036 RMK A01 T01051056  RH  032%=      5-min Rain = 0
KPD2 131633Z 12008KT 10/M06 A3036 RMK A01 T01041057  RH  032%=      5-min Rain = 0
KPD2 131634Z 14009KT 10/M06 A3036 RMK A01 T01031057  RH  032%=      5-min Rain = 0
KPD2 131635Z 15008KT 10/M06 A3036 RMK A01 T01031057  RH  032%=      5-min Rain = 0
KPD2 131636Z 13008KT 10/M06 A3036 RMK A01 T01021056  RH  032%=      5-min Rain = 0
KPD2 131637Z 14010KT 11/M06 A3036 RMK A01 T01061055  RH  032%=      5-min Rain = 0
KPD2 131638Z 15010KT 11/M06 A3036 RMK A01 T01071056  RH  031%=      5-min Rain = 0
KPD2 131639Z 13009KT 11/M06 A3036 RMK A01 T01081055  RH  031%=      5-min Rain = 0
KPD2 131640Z 14007KT 11/M05 A3035 RMK A01 T01101054  RH  031%=      5-min Rain = 0
KPD2 131641Z 13009G15KT 11/M05 A3035 RMK A01 T01131054  RH  031%=      5-min Rain = 0
KPD2 131642Z 12009KT 11/M06 A3035 RMK A01 T01121055  RH  031%=      5-min Rain = 0
KPD2 131643Z 14010KT 11/M06 A3035 RMK A01 T01131055  RH  030%=      5-min Rain = 0
KPD2 131644Z 12007KT 11/M06 A3035 RMK A01 T01121056  RH  030%=      5-min Rain = 0
KPD2 131645Z 11009KT 11/M05 A3035 RMK A01 T01141052  RH  031%=      5-min Rain = 0
KPD2 131646Z 13009KT 12/M06 A3035 RMK A01 T01151055  RH  030%=      5-min Rain = 0
KPD2 131647Z 15009KT 11/M06 A3035 RMK A01 T01131055  RH  030%=      5-min Rain = 0
KPD2 131648Z 14009G14KT 11/M06 A3035 RMK A01 T01121055  RH  030%=      5-min Rain = 0
KPD2 131649Z 13008G13KT 11/M06 A3035 RMK A01 T01111056  RH  031%=      5-min Rain = 0
KPD2 131650Z 11007KT 11/M06 A3035 RMK A01 T01121055  RH  031%=      5-min Rain = 0
KPD2 131651Z 14009KT 11/M05 A3035 RMK A01 T01141054  RH  030%=      5-min Rain = 0
KPD2 131652Z 13007KT 11/M06 A3035 RMK A01 T01141056  RH  030%=      5-min Rain = 0
KPD2 131653Z 13011KT 11/M06 A3035 RMK A01 T01131055  RH  030%=      5-min Rain = 0
KPD2 131654Z 12010KT 11/M06 A3035 RMK A01 T01131056  RH  030%=      5-min Rain = 0
KPD2 131655Z 11008KT 11/M06 A3035 RMK A01 T01101057  RH  030%=      5-min Rain = 0
KPD2 131656Z 14006KT 11/M06 A3035 RMK A01 T01081058  RH  031%=      5-min Rain = 0
KPD2 131657Z 15010KT 11/M06 A3035 RMK A01 T01091055  RH  031%=      5-min Rain = 0
KPD2 131658Z 15011KT 11/M06 A3035 RMK A01 T01111055  RH  031%=      5-min Rain = 0
KPD2 131659Z 15010KT 11/M06 A3035 RMK A01 T01101056  RH  031%=      5-min Rain = 0
KPD2 131700Z 15009KT 11/M06 A3035 RMK A01 T01091057  RH  031%=      5-min Rain = 0
KPD2 131701Z 16007KT 11/M06 A3035 RMK A01 T01081055  RH  031%=      5-min Rain = 0
KPD2 131702Z 16006KT 11/M06 A3035 RMK A01 T01101055  RH  031%=      5-min Rain = 0
KPD2 131703Z 13006KT 11/M06 A3035 RMK A01 T01101056  RH  031%=      5-min Rain = 0
KPD2 131704Z 12012KT 11/M05 A3035 RMK A01 T01111054  RH  031%=      5-min Rain = 0
KPD2 131705Z 14008KT 11/M06 A3035 RMK A01 T01131056  RH  030%=      5-min Rain = 0
KPD2 131706Z 13011G17KT 11/M06 A3035 RMK A01 T01121056  RH  030%=      5-min Rain = 0
KPD2 131707Z 13011KT 11/M06 A3035 RMK A01 T01121056  RH  030%=      5-min Rain = 0
KPD2 131708Z 12008KT 11/M06 A3035 RMK A01 T01111057  RH  030%=      5-min Rain = 0
KPD2 131709Z 12007KT 11/M06 A3035 RMK A01 T01101057  RH  031%=      5-min Rain = 0
KPD2 131710Z 13007G13KT 11/M06 A3035 RMK A01 T01091057  RH  031%=      5-min Rain = 0
KPD2 131711Z 13008KT 11/M06 A3036 RMK A01 T01111056  RH  031%=      5-min Rain = 0
KPD2 131712Z 11007KT 11/M06 A3035 RMK A01 T01111057  RH  030%=      5-min Rain = 0
KPD2 131713Z 09009KT 11/M06 A3035 RMK A01 T01111057  RH  030%=      5-min Rain = 0
KPD2 131714Z 09006KT 11/M06 A3035 RMK A01 T01091058  RH  030%=      5-min Rain = 0
KPD2 131715Z 09009KT 11/M06 A3035 RMK A01 T01111056  RH  030%=      5-min Rain = 0
KPD2 131716Z 10008KT 11/M06 A3035 RMK A01 T01121057  RH  030%=      5-min Rain = 0
KPD2 131717Z 12005KT 11/M06 A3035 RMK A01 T01111058  RH  030%=      5-min Rain = 0
KPD2 131718Z 13009KT 11/M06 A3035 RMK A01 T01121056  RH  030%=      5-min Rain = 0
KPD2 131719Z 13008KT 11/M06 A3035 RMK A01 T01131056  RH  030%=      5-min Rain = 0
KPD2 131720Z 12010KT 11/M06 A3035 RMK A01 T01131057  RH  030%=      5-min Rain = 0
KPD2 131721Z 12008KT 11/M06 A3036 RMK A01 T01131057  RH  030%=      5-min Rain = 0
KPD2 131722Z 09004KT 11/M06 A3035 RMK A01 T01111058  RH  030%=      5-min Rain = 0
KPD2 131723Z 09003KT 11/M06 A3035 RMK A01 T01131056  RH  030%=      5-min Rain = 0
KPD2 131724Z 10004KT 12/M06 A3035 RMK A01 T01161056  RH  029%=      5-min Rain = 0
KPD2 131725Z 11011KT 12/M06 A3035 RMK A01 T01171056  RH  029%=      5-min Rain = 0
KPD2 131726Z 12007KT 12/M06 A3035 RMK A01 T01151057  RH  029%=      5-min Rain = 0
KPD2 131727Z 14005KT 12/M06 A3035 RMK A01 T01151056  RH  030%=      5-min Rain = 0
KPD2 131728Z 13005KT 12/M06 A3035 RMK A01 T01161056  RH  030%=      5-min Rain = 0
KPD2 131729Z 16010KT 12/M05 A3035 RMK A01 T01181054  RH  030%=      5-min Rain = 0
KPD2 131730Z 17009KT 12/M06 A3035 RMK A01 T01201055  RH  029%=      5-min Rain = 0
KPD2 131731Z 16006KT 12/M06 A3035 RMK A01 T01171056  RH  029%=      5-min Rain = 0
KPD2 131732Z 15006KT 12/M06 A3035 RMK A01 T01171055  RH  030%=      5-min Rain = 0
KPD2 131733Z 14006KT 12/M06 A3035 RMK A01 T01171055  RH  030%=      5-min Rain = 0
KPD2 131734Z 14006KT 12/M06 A3035 RMK A01 T01181055  RH  029%=      5-min Rain = 0
KPD2 131735Z 13005KT 12/M06 A3035 RMK A01 T01181056  RH  029%=      5-min Rain = 0
KPD2 131736Z 12010KT 12/M06 A3035 RMK A01 T01191055  RH  029%=      5-min Rain = 0
KPD2 131737Z 13008KT 12/M06 A3035 RMK A01 T01191056  RH  029%=      5-min Rain = 0
KPD2 131738Z 10006KT 12/M06 A3035 RMK A01 T01171057  RH  029%=      5-min Rain = 0
KPD2 131739Z 12007KT 12/M06 A3034 RMK A01 T01161057  RH  029%=      5-min Rain = 0
KPD2 131740Z 13010KT 12/M06 A3034 RMK A01 T01171056  RH  029%=      5-min Rain = 0
KPD2 131741Z 12007KT 12/M06 A3035 RMK A01 T01191055  RH  029%=      5-min Rain = 0
KPD2 131742Z 12004KT 12/M06 A3034 RMK A01 T01201055  RH  029%=      5-min Rain = 0
KPD2 131743Z 14004KT 12/M06 A3034 RMK A01 T01211056  RH  029%=      5-min Rain = 0
KPD2 131744Z 11006KT 12/M06 A3034 RMK A01 T01221055  RH  029%=      5-min Rain = 0
KPD2 131745Z 13010KT 12/M05 A3034 RMK A01 T01241054  RH  029%=      5-min Rain = 0
KPD2 131746Z 13010KT 12/M05 A3034 RMK A01 T01241054  RH  028%=      5-min Rain = 0
KPD2 131747Z 10008KT 12/M05 A3034 RMK A01 T01241054  RH  028%=      5-min Rain = 0
KPD2 131748Z 13006KT 12/M05 A3034 RMK A01 T01241054  RH  028%=      5-min Rain = 0
KPD2 131749Z 14008KT 12/M05 A3034 RMK A01 T01241054  RH  028%=      5-min Rain = 0
KPD2 131750Z 14005KT 13/M05 A3034 RMK A01 T01251054  RH  028%=      5-min Rain = 0
KPD2 131751Z 16006KT 13/M05 A3034 RMK A01 T01271053  RH  028%=      5-min Rain = 0
KPD2 131752Z 16008KT 13/M05 A3034 RMK A01 T01321051  RH  028%=      5-min Rain = 0
KPD2 131753Z 16006KT 13/M05 A3034 RMK A01 T01321053  RH  027%=      5-min Rain = 0
KPD2 131754Z 15007KT 13/M05 A3034 RMK A01 T01291054  RH  027%=      5-min Rain = 0
KPD2 131755Z 13007KT 13/M05 A3034 RMK A01 T01281054  RH  028%=      5-min Rain = 0
KPD2 131756Z 14008KT 13/M05 A3034 RMK A01 T01291052  RH  028%=      5-min Rain = 0
KPD2 131757Z 13008KT 13/M05 A3034 RMK A01 T01311052  RH  027%=      5-min Rain = 0
KPD2 131758Z 11007KT 13/M05 A3034 RMK A01 T01321051  RH  028%=      5-min Rain = 0
KPD2 131759Z 13007KT 13/M05 A3034 RMK A01 T01341053  RH  027%=      5-min Rain = 0
KPD2 131800Z 11005KT 13/M05 A3034 RMK A01 T01321054  RH  027%=      5-min Rain = 0
KPD2 131801Z 11004KT 13/M06 A3034 RMK A01 T01301055  RH  027%=      5-min Rain = 0
KPD2 131802Z 12006KT 13/M05 A3034 RMK A01 T01291053  RH  028%=      5-min Rain = 0
KPD2 131803Z 12005KT 13/M05 A3034 RMK A01 T01321052  RH  027%=      5-min Rain = 0
KPD2 131804Z 15003KT 13/M05 A3033 RMK A01 T01321053  RH  027%=      5-min Rain = 0
KPD2 131805Z 09003KT 13/M05 A3034 RMK A01 T01341051  RH  027%=      5-min Rain = 0
KPD2 131806Z 11006KT 14/M05 A3033 RMK A01 T01361053  RH  027%=      5-min Rain = 0
KPD2 131807Z 09006KT 14/M05 A3034 RMK A01 T01361053  RH  026%=      5-min Rain = 0
KPD2 131808Z 13006KT 14/M05 A3033 RMK A01 T01371052  RH  026%=      5-min Rain = 0
KPD2 131809Z 14004KT 14/M05 A3033 RMK A01 T01391051  RH  026%=      5-min Rain = 0
KPD2 131810Z 12005KT 14/M05 A3033 RMK A01 T01411051  RH  026%=      5-min Rain = 0
KPD2 131811Z 10004KT 14/M05 A3033 RMK A01 T01421051  RH  026%=      5-min Rain = 0
KPD2 131812Z 09006KT 14/M05 A3033 RMK A01 T01421052  RH  026%=      5-min Rain = 0
KPD2 131813Z 12007KT 14/M05 A3034 RMK A01 T01401053  RH  026%=      5-min Rain = 0
KPD2 131814Z 11006KT 14/M05 A3034 RMK A01 T01391052  RH  026%=      5-min Rain = 0
KPD2 131815Z 14005G10KT 14/M05 A3033 RMK A01 T01381053  RH  026%=      5-min Rain = 0
KPD2 131816Z 14011KT 14/M05 A3033 RMK A01 T01371051  RH  027%=      5-min Rain = 0
KPD2 131817Z 14009KT 14/M05 A3033 RMK A01 T01381051  RH  027%=      5-min Rain = 0
KPD2 131818Z 14009KT 14/M05 A3033 RMK A01 T01371051  RH  027%=      5-min Rain = 0
KPD2 131819Z 17008KT 14/M05 A3033 RMK A01 T01371051  RH  027%=      5-min Rain = 0
KPD2 131820Z 17006KT 14/M05 A3034 RMK A01 T01371051  RH  027%=      5-min Rain = 0
KPD2 131821Z 11006KT 14/M05 A3034 RMK A01 T01371050  RH  027%=      5-min Rain = 0
KPD2 131822Z 10005KT 14/M05 A3034 RMK A01 T01391050  RH  027%=      5-min Rain = 0
KPD2 131823Z 13006KT 14/M05 A3034 RMK A01 T01411049  RH  026%=      5-min Rain = 0
KPD2 131824Z 12003KT 14/M05 A3034 RMK A01 T01421052  RH  026%=      5-min Rain = 0
KPD2 131825Z 11003KT 14/M05 A3033 RMK A01 T01411051  RH  026%=      5-min Rain = 0
KPD2 131826Z 14005KT 14/M05 A3033 RMK A01 T01411052  RH  026%=      5-min Rain = 0
KPD2 131827Z 12002KT 14/M05 A3033 RMK A01 T01381054  RH  026%=      5-min Rain = 0
KPD2 131828Z 14003KT 14/M05 A3033 RMK A01 T01351054  RH  026%=      5-min Rain = 0
KPD2 131829Z 13008G13KT 13/M05 A3033 RMK A01 T01341053  RH  027%=      5-min Rain = 0
KPD2 131830Z 12008G13KT 14/M05 A3033 RMK A01 T01351052  RH  027%=      5-min Rain = 0
KPD2 131831Z 12005KT 14/M05 A3033 RMK A01 T01361052  RH  027%=      5-min Rain = 0
KPD2 131832Z 15008KT 14/M05 A3033 RMK A01 T01371052  RH  027%=      5-min Rain = 0
KPD2 131833Z 17009KT 14/M05 A3033 RMK A01 T01391052  RH  026%=      5-min Rain = 0
KPD2 131834Z 15009KT 14/M05 A3033 RMK A01 T01371053  RH  026%=      5-min Rain = 0
KPD2 131835Z 15008KT 14/M05 A3033 RMK A01 T01371051  RH  027%=      5-min Rain = 0
KPD2 131836Z 14009KT 14/M05 A3033 RMK A01 T01391051  RH  026%=      5-min Rain = 0
KPD2 131837Z 13007KT 14/M05 A3033 RMK A01 T01391052  RH  026%=      5-min Rain = 0
KPD2 131838Z 12006KT 14/M05 A3033 RMK A01 T01371052  RH  026%=      5-min Rain = 0
KPD2 131839Z 10002KT 14/M05 A3033 RMK A01 T01371052  RH  027%=      5-min Rain = 0
KPD2 131840Z 13005G11KT 14/M05 A3033 RMK A01 T01371053  RH  026%=      5-min Rain = 0
KPD2 131841Z 13007KT 14/M05 A3033 RMK A01 T01381051  RH  027%=      5-min Rain = 0
KPD2 131842Z 11006KT 14/M05 A3033 RMK A01 T01411050  RH  026%=      5-min Rain = 0
KPD2 131843Z 09004KT 14/M05 A3033 RMK A01 T01431050  RH  026%=      5-min Rain = 0
KPD2 131844Z 11004KT 15/M05 A3033 RMK A01 T01451050  RH  026%=      5-min Rain = 0
KPD2 131845Z 14005KT 15/M05 A3033 RMK A01 T01471049  RH  025%=      5-min Rain = 0
KPD2 131846Z 15005KT 15/M05 A3033 RMK A01 T01471051  RH  025%=      5-min Rain = 0
KPD2 131847Z 13005KT 14/M05 A3033 RMK A01 T01441051  RH  025%=      5-min Rain = 0
KPD2 131848Z 10004KT 14/M05 A3033 RMK A01 T01431051  RH  026%=      5-min Rain = 0
KPD2 131849Z 15002KT 15/M05 A3033 RMK A01 T01451050  RH  026%=      5-min Rain = 0
KPD2 131850Z 12003G8KT 15/M05 A3033 RMK A01 T01481050  RH  025%=      5-min Rain = 0
KPD2 131851Z 13008KT 15/M05 A3033 RMK A01 T01481051  RH  025%=      5-min Rain = 0
KPD2 131852Z 15005KT 15/M05 A3033 RMK A01 T01471051  RH  025%=      5-min Rain = 0
KPD2 131853Z 16003KT 14/M05 A3033 RMK A01 T01431053  RH  025%=      5-min Rain = 0
KPD2 131854Z 14005KT 14/M05 A3033 RMK A01 T01401052  RH  026%=      5-min Rain = 0
KPD2 131855Z 14008KT 14/M05 A3033 RMK A01 T01411051  RH  026%=      5-min Rain = 0
KPD2 131856Z 14009KT 14/M05 A3033 RMK A01 T01421051  RH  026%=      5-min Rain = 0
KPD2 131857Z 12010KT 14/M05 A3033 RMK A01 T01411052  RH  026%=      5-min Rain = 0
KPD2 131858Z 13009KT 14/M05 A3033 RMK A01 T01401052  RH  026%=      5-min Rain = 0
KPD2 131859Z 13008KT 14/M05 A3033 RMK A01 T01421051  RH  026%=      5-min Rain = 0
KPD2 131900Z 15006KT 14/M05 A3033 RMK A01 T01431051  RH  026%=      5-min Rain = 0
KPD2 131901Z 13005KT 14/M05 A3033 RMK A01 T01421052  RH  026%=      5-min Rain = 0
KPD2 131902Z 12006KT 14/M05 A3033 RMK A01 T01421052  RH  026%=      5-min Rain = 0
KPD2 131903Z 12005KT 14/M05 A3033 RMK A01 T01421052  RH  026%=      5-min Rain = 0
KPD2 131904Z 09005KT 14/M05 A3033 RMK A01 T01431051  RH  026%=      5-min Rain = 0
KPD2 131905Z 09004KT 14/M05 A3032 RMK A01 T01421052  RH  026%=      5-min Rain = 0
KPD2 131906Z 11005KT 14/M05 A3032 RMK A01 T01411052  RH  026%=      5-min Rain = 0
KPD2 131907Z 12008G13KT 14/M05 A3032 RMK A01 T01411051  RH  026%=      5-min Rain = 0
KPD2 131908Z 13009KT 14/M05 A3032 RMK A01 T01431051  RH  026%=      5-min Rain = 0
KPD2 131909Z 13008KT 14/M05 A3032 RMK A01 T01441051  RH  026%=      5-min Rain = 0
KPD2 131910Z 13005KT 15/M05 A3032 RMK A01 T01471050  RH  025%=      5-min Rain = 0
KPD2 131911Z 11003KT 15/M05 A3032 RMK A01 T01481050  RH  025%=      5-min Rain = 0
KPD2 131912Z 17006G13KT 15/M05 A3032 RMK A01 T01491049  RH  025%=      5-min Rain = 0
KPD2 131913Z 17009KT 15/M05 A3032 RMK A01 T01491050  RH  025%=      5-min Rain = 0
KPD2 131914Z 16007KT 15/M05 A3032 RMK A01 T01461050  RH  025%=      5-min Rain = 0
KPD2 131915Z 14011KT 15/M05 A3032 RMK A01 T01491048  RH  025%=      5-min Rain = 0
KPD2 131916Z 11007G12KT 15/M05 A3032 RMK A01 T01491049  RH  025%=      5-min Rain = 0
KPD2 131917Z 15005KT 15/M05 A3032 RMK A01 T01501050  RH  025%=      5-min Rain = 0
KPD2 131918Z 15004KT 15/M05 A3032 RMK A01 T01501050  RH  025%=      5-min Rain = 0
KPD2 131919Z 13006KT 15/M05 A3032 RMK A01 T01501049  RH  025%=      5-min Rain = 0
KPD2 131920Z 15005KT 15/M05 A3032 RMK A01 T01501050  RH  025%=      5-min Rain = 0
KPD2 131921Z 15002KT 15/M05 A3032 RMK A01 T01491051  RH  025%=      5-min Rain = 0
KPD2 131922Z 15003KT 15/M05 A3031 RMK A01 T01481051  RH  025%=      5-min Rain = 0
KPD2 131923Z 18004KT 15/M05 A3031 RMK A01 T01491050  RH  025%=      5-min Rain = 0
KPD2 131924Z 24002KT 15/M05 A3031 RMK A01 T01491052  RH  025%=      5-min Rain = 0
KPD2 131925Z 17002KT 15/M05 A3031 RMK A01 T01481051  RH  025%=      5-min Rain = 0
KPD2 131926Z 12006KT 15/M05 A3031 RMK A01 T01501049  RH  025%=      5-min Rain = 0
KPD2 131927Z 14006KT 15/M05 A3031 RMK A01 T01531050  RH  024%=      5-min Rain = 0
KPD2 131928Z 12007KT 15/M05 A3031 RMK A01 T01531050  RH  024%=      5-min Rain = 0
KPD2 131929Z 11005KT 15/M05 A3031 RMK A01 T01541049  RH  024%=      5-min Rain = 0
KPD2 131930Z 11006KT 16/M05 A3031 RMK A01 T01561049  RH  024%=      5-min Rain = 0
KPD2 131931Z 09004KT 16/M05 A3031 RMK A01 T01581048  RH  024%=      5-min Rain = 0
KPD2 131932Z 10003KT 16/M05 A303 RMK A01 T01601049  RH  023%=      5-min Rain = 0
KPD2 131933Z 12002KT 16/M05 A303 RMK A01 T01581051  RH  023%=      5-min Rain = 0
KPD2 131934Z 13003G9KT 16/M05 A303 RMK A01 T01561051  RH  024%=      5-min Rain = 0
KPD2 131935Z 14005KT 16/M05 A303 RMK A01 T01571048  RH  024%=      5-min Rain = 0
KPD2 131936Z 08005KT 16/M05 A303 RMK A01 T01581049  RH  024%=      5-min Rain = 0
KPD2 131937Z 06004KT 16/M05 A303 RMK A01 T01561050  RH  024%=      5-min Rain = 0
KPD2 131938Z 08005KT 15/M05 A303 RMK A01 T01541052  RH  024%=      5-min Rain = 0
KPD2 131939Z 11008KT 15/M05 A303 RMK A01 T01541050  RH  024%=      5-min Rain = 0
KPD2 131940Z 11006KT 16/M05 A303 RMK A01 T01551051  RH  024%=      5-min Rain = 0
KPD2 131941Z 09008KT 15/M05 A303 RMK A01 T01541050  RH  024%=      5-min Rain = 0
KPD2 131942Z 09007KT 16/M05 A303 RMK A01 T01561049  RH  024%=      5-min Rain = 0
KPD2 131943Z 12005G10KT 16/M05 A303 RMK A01 T01581049  RH  024%=      5-min Rain = 0
KPD2 131944Z 11005KT 16/M05 A303 RMK A01 T01621047  RH  023%=      5-min Rain = 0
KPD2 131945Z 11006G12KT 17/M05 A303 RMK A01 T01651049  RH  023%=      5-min Rain = 0
KPD2 131946Z 11008G13KT 16/M05 A3029 RMK A01 T01641050  RH  023%=      5-min Rain = 0
KPD2 131947Z 10010KT 16/M05 A3029 RMK A01 T01631050  RH  023%=      5-min Rain = 0
KPD2 131948Z 11007KT 16/M05 A3029 RMK A01 T01641050  RH  023%=      5-min Rain = 0
KPD2 131949Z 11007KT 16/M05 A3029 RMK A01 T01611052  RH  023%=      5-min Rain = 0
KPD2 131950Z 11007KT 16/M05 A3029 RMK A01 T01581051  RH  023%=      5-min Rain = 0
KPD2 131951Z 11006KT 16/M05 A3029 RMK A01 T01581051  RH  023%=      5-min Rain = 0
KPD2 131952Z 12006KT 16/M05 A3029 RMK A01 T01581051  RH  023%=      5-min Rain = 0
KPD2 131953Z 15007KT 16/M05 A3029 RMK A01 T01581050  RH  023%=      5-min Rain = 0
KPD2 131954Z 17007KT 16/M05 A3029 RMK A01 T01581051  RH  023%=      5-min Rain = 0
KPD2 131955Z 14006KT 16/M05 A3029 RMK A01 T01561052  RH  023%=      5-min Rain = 0
KPD2 131956Z 14006KT 15/M05 A3029 RMK A01 T01541053  RH  024%=      5-min Rain = 0
KPD2 131957Z 14002KT 15/M05 A3029 RMK A01 T01511054  RH  024%=      5-min Rain = 0
KPD2 131958Z 16003KT 15/M05 A3029 RMK A01 T01511054  RH  024%=      5-min Rain = 0
KPD2 131959Z 19005KT 15/M05 A3029 RMK A01 T01521052  RH  024%=      5-min Rain = 0
KPD2 132000Z 17009KT 15/M05 A3029 RMK A01 T01531052  RH  024%=      5-min Rain = 0
KPD2 132001Z 17008KT 15/M05 A3029 RMK A01 T01541052  RH  024%=      5-min Rain = 0
KPD2 132002Z 18006G11KT 16/M05 A3029 RMK A01 T01561050  RH  024%=      5-min Rain = 0
KPD2 132003Z 20006KT 16/M05 A3028 RMK A01 T01561052  RH  023%=      5-min Rain = 0
KPD2 132004Z 20007KT 16/M05 A3028 RMK A01 T01571050  RH  024%=      5-min Rain = 0
KPD2 132005Z 15008KT 16/M05 A3028 RMK A01 T01601049  RH  023%=      5-min Rain = 0
KPD2 132006Z 12006KT 16/M05 A3028 RMK A01 T01621049  RH  023%=      5-min Rain = 0
KPD2 132007Z 10006KT 17/M05 A3028 RMK A01 T01661048  RH  023%=      5-min Rain = 0
KPD2 132008Z 08007KT 17/M05 A3028 RMK A01 T01671049  RH  022%=      5-min Rain = 0
KPD2 132009Z 10007KT 17/M05 A3028 RMK A01 T01661051  RH  022%=      5-min Rain = 0
KPD2 132010Z 13006KT 17/M05 A3028 RMK A01 T01661049  RH  023%=      5-min Rain = 0
KPD2 132011Z 12006G11KT 17/M05 A3028 RMK A01 T01661050  RH  022%=      5-min Rain = 0
KPD2 132012Z 12010KT 17/M05 A3028 RMK A01 T01671050  RH  022%=      5-min Rain = 0
KPD2 132013Z 10006KT 17/M05 A3028 RMK A01 T01671050  RH  022%=      5-min Rain = 0
KPD2 132014Z 09005KT 17/M05 A3028 RMK A01 T01681049  RH  022%=      5-min Rain = 0
KPD2 132015Z 11006KT 17/M05 A3028 RMK A01 T01691050  RH  022%=      5-min Rain = 0
KPD2 132016Z 10006KT 17/M05 A3028 RMK A01 T01671052  RH  022%=      5-min Rain = 0
KPD2 132017Z 10008KT 16/M05 A3028 RMK A01 T01641053  RH  022%=      5-min Rain = 0
KPD2 132018Z 13008KT 16/M05 A3028 RMK A01 T01641050  RH  023%=      5-min Rain = 0
KPD2 132019Z 15009KT 17/M05 A3028 RMK A01 T01681048  RH  022%=      5-min Rain = 0
KPD2 132020Z 15007KT 17/M05 A3028 RMK A01 T01701049  RH  022%=      5-min Rain = 0
KPD2 132021Z 13006KT 17/M05 A3028 RMK A01 T01721048  RH  022%=      5-min Rain = 0
KPD2 132022Z 10006KT 17/M05 A3028 RMK A01 T01741049  RH  021%=      5-min Rain = 0
KPD2 132023Z 11005KT 18/M05 A3028 RMK A01 T01761050  RH  021%=      5-min Rain = 0
KPD2 132024Z 09003KT 17/M05 A3028 RMK A01 T01731052  RH  021%=      5-min Rain = 0
KPD2 132025Z 13002KT 17/M05 A3028 RMK A01 T01701052  RH  022%=      5-min Rain = 0
KPD2 132026Z 15004KT 17/M05 A3028 RMK A01 T01681052  RH  022%=      5-min Rain = 0
KPD2 132027Z 14005KT 17/M05 A3028 RMK A01 T01651053  RH  022%=      5-min Rain = 0
KPD2 132028Z 11008KT 17/M05 A3028 RMK A01 T01651052  RH  022%=      5-min Rain = 0
KPD2 132029Z 08008KT 17/M05 A3028 RMK A01 T01681052  RH  022%=      5-min Rain = 0
KPD2 132030Z 09009KT 17/M05 A3028 RMK A01 T01691052  RH  022%=      5-min Rain = 0
KPD2 132031Z 10008KT 17/M05 A3028 RMK A01 T01691052  RH  022%=      5-min Rain = 0
KPD2 132032Z 09006KT 17/M06 A3028 RMK A01 T01651055  RH  022%=      5-min Rain = 0
KPD2 132033Z 11004KT 16/M06 A3028 RMK A01 T01611055  RH  022%=      5-min Rain = 0
KPD2 132034Z 12004KT 16/M05 A3028 RMK A01 T01601054  RH  023%=      5-min Rain = 0
KPD2 132035Z 12004KT 16/M05 A3028 RMK A01 T01631052  RH  022%=      5-min Rain = 0
KPD2 132036Z 10002KT 17/M05 A3028 RMK A01 T01661051  RH  022%=      5-min Rain = 0
KPD2 132037Z 14002KT 17/M05 A3028 RMK A01 T01691052  RH  022%=      5-min Rain = 0
KPD2 132038Z 14006KT 17/M05 A3028 RMK A01 T01711050  RH  022%=      5-min Rain = 0
KPD2 132039Z 13006KT 17/M05 A3028 RMK A01 T01721050  RH  022%=      5-min Rain = 0
KPD2 132040Z 14008KT 17/M05 A3028 RMK A01 T01741050  RH  021%=      5-min Rain = 0
KPD2 132041Z 12007KT 17/M05 A3028 RMK A01 T01741050  RH  021%=      5-min Rain = 0
KPD2 132042Z 11007KT 18/M05 A3028 RMK A01 T01751050  RH  021%=      5-min Rain = 0
KPD2 132043Z 12005KT 18/M05 A3028 RMK A01 T01751051  RH  021%=      5-min Rain = 0
KPD2 132044Z 13009KT 18/M05 A3028 RMK A01 T01751049  RH  021%=      5-min Rain = 0
KPD2 132045Z 13007KT 18/M05 A3027 RMK A01 T01771051  RH  021%=      5-min Rain = 0
KPD2 132046Z 11005KT 18/M05 A3027 RMK A01 T01761051  RH  021%=      5-min Rain = 0
KPD2 132047Z 10005KT 18/M05 A3027 RMK A01 T01761050  RH  021%=      5-min Rain = 0
KPD2 132048Z 08006KT 18/M05 A3027 RMK A01 T01761051  RH  021%=      5-min Rain = 0
KPD2 132049Z 08003KT 18/M05 A3027 RMK A01 T01751052  RH  021%=      5-min Rain = 0
KPD2 132050Z 12002KT 17/M05 A3027 RMK A01 T01741052  RH  021%=      5-min Rain = 0
KPD2 132051Z 15003KT 17/M05 A3027 RMK A01 T01731052  RH  021%=      5-min Rain = 0
KPD2 132052Z 11006KT 17/M05 A3027 RMK A01 T01701054  RH  021%=      5-min Rain = 0
KPD2 132053Z 10006KT 17/M05 A3027 RMK A01 T01681053  RH  022%=      5-min Rain = 0
KPD2 132054Z 11005KT 17/M05 A3027 RMK A01 T01671053  RH  022%=      5-min Rain = 0
KPD2 132055Z 12005G10KT 17/M05 A3027 RMK A01 T01671053  RH  022%=      5-min Rain = 0
KPD2 132056Z 16008KT 17/M05 A3027 RMK A01 T01671053  RH  022%=      5-min Rain = 0
KPD2 132057Z 17008KT 17/M05 A3027 RMK A01 T01661053  RH  022%=      5-min Rain = 0
KPD2 132058Z 19004KT 16/M06 A3028 RMK A01 T01621056  RH  022%=      5-min Rain = 0
KPD2 132059Z 18003G9KT 16/M06 A3027 RMK A01 T01591057  RH  022%=      5-min Rain = 0
KPD2 132100Z 17010KT 16/M06 A3027 RMK A01 T01581056  RH  022%=      5-min Rain = 0
KPD2 132101Z 14007KT 16/M06 A3028 RMK A01 T01581056  RH  023%=      5-min Rain = 0
KPD2 132102Z 15005KT 16/M06 A3028 RMK A01 T01581055  RH  023%=      5-min Rain = 0
KPD2 132103Z 16004KT 16/M06 A3028 RMK A01 T01571055  RH  023%=      5-min Rain = 0
KPD2 132104Z 19002KT 16/M06 A3027 RMK A01 T01561056  RH  023%=      5-min Rain = 0
KPD2 132105Z 16004KT 15/M06 A3027 RMK A01 T01541056  RH  023%=      5-min Rain = 0
KPD2 132106Z 15006KT 16/M06 A3027 RMK A01 T01551055  RH  023%=      5-min Rain = 0
KPD2 132107Z 16005KT 16/M06 A3027 RMK A01 T01571055  RH  023%=      5-min Rain = 0
KPD2 132108Z 14003KT 16/M06 A3027 RMK A01 T01571056  RH  023%=      5-min Rain = 0
KPD2 132109Z 17004KT 16/M06 A3027 RMK A01 T01571056  RH  023%=      5-min Rain = 0
KPD2 132110Z 14002KT 16/M06 A3027 RMK A01 T01561057  RH  023%=      5-min Rain = 0
KPD2 132111Z 15004G9KT 16/M06 A3027 RMK A01 T01561056  RH  023%=      5-min Rain = 0
KPD2 132112Z 14007KT 16/M06 A3027 RMK A01 T01561055  RH  023%=      5-min Rain = 0
KPD2 132113Z 15005KT 16/M05 A3027 RMK A01 T01561054  RH  023%=      5-min Rain = 0
KPD2 132114Z 15008KT 16/M05 A3027 RMK A01 T01551054  RH  023%=      5-min Rain = 0
KPD2 132115Z 16007KT 16/M05 A3027 RMK A01 T01561053  RH  023%=      5-min Rain = 0
KPD2 132116Z 13010KT 16/M05 A3027 RMK A01 T01551054  RH  023%=      5-min Rain = 0
KPD2 132117Z 13007KT 16/M05 A3027 RMK A01 T01551052  RH  024%=      5-min Rain = 0
KPD2 132118Z 15006KT 16/M05 A3027 RMK A01 T01571051  RH  023%=      5-min Rain = 0
KPD2 132119Z 12008KT 16/M05 A3027 RMK A01 T01581052  RH  023%=      5-min Rain = 0
KPD2 132120Z 12006KT 16/M05 A3027 RMK A01 T01591052  RH  023%=      5-min Rain = 0
KPD2 132121Z 15007KT 16/M05 A3027 RMK A01 T01601052  RH  023%=      5-min Rain = 0
KPD2 132122Z 16007KT 16/M05 A3027 RMK A01 T01581052  RH  023%=      5-min Rain = 0
KPD2 132123Z 13009KT 16/M05 A3027 RMK A01 T01581051  RH  023%=      5-min Rain = 0
KPD2 132124Z 15008KT 16/M05 A3027 RMK A01 T01591052  RH  023%=      5-min Rain = 0
KPD2 132125Z 12005KT 16/M05 A3027 RMK A01 T01591052  RH  023%=      5-min Rain = 0
KPD2 132126Z 14003KT 16/M05 A3027 RMK A01 T01591053  RH  023%=      5-min Rain = 0
KPD2 132127Z 14006KT 16/M05 A3027 RMK A01 T01601052  RH  023%=      5-min Rain = 0
KPD2 132128Z 12009KT 16/M05 A3027 RMK A01 T01631050  RH  023%=      5-min Rain = 0
KPD2 132129Z 12007KT 17/M05 A3027 RMK A01 T01661050  RH  022%=      5-min Rain = 0
KPD2 132130Z 13008KT 17/M05 A3027 RMK A01 T01671051  RH  022%=      5-min Rain = 0
KPD2 132131Z 14007KT 17/M05 A3027 RMK A01 T01681050  RH  022%=      5-min Rain = 0
KPD2 132132Z 16008KT 17/M05 A3027 RMK A01 T01661052  RH  022%=      5-min Rain = 0
KPD2 132133Z 14009KT 17/M05 A3027 RMK A01 T01651052  RH  022%=      5-min Rain = 0
KPD2 132134Z 14007KT 17/M05 A3027 RMK A01 T01671050  RH  022%=      5-min Rain = 0
KPD2 132135Z 13008KT 17/M05 A3027 RMK A01 T01691051  RH  022%=      5-min Rain = 0
KPD2 132136Z 12006KT 17/M05 A3027 RMK A01 T01681052  RH  022%=      5-min Rain = 0
KPD2 132137Z 13007KT 17/M05 A3027 RMK A01 T01671053  RH  022%=      5-min Rain = 0
KPD2 132138Z 12007KT 16/M05 A3027 RMK A01 T01641053  RH  022%=      5-min Rain = 0
KPD2 132139Z 14007KT 16/M05 A3027 RMK A01 T01631052  RH  022%=      5-min Rain = 0
KPD2 132140Z 15007KT 16/M05 A3026 RMK A01 T01631051  RH  023%=      5-min Rain = 0
KPD2 132141Z 14004KT 16/M05 A3026 RMK A01 T01611053  RH  023%=      5-min Rain = 0
KPD2 132142Z 18005KT 16/M05 A3026 RMK A01 T01591052  RH  023%=      5-min Rain = 0
KPD2 132143Z 17004KT 16/M05 A3026 RMK A01 T01591052  RH  023%=      5-min Rain = 0
KPD2 132144Z 18004KT 16/M05 A3026 RMK A01 T01591052  RH  023%=      5-min Rain = 0
KPD2 132145Z 16005KT 16/M05 A3026 RMK A01 T01571053  RH  023%=      5-min Rain = 0
KPD2 132146Z 12006KT 16/M05 A3026 RMK A01 T01581052  RH  023%=      5-min Rain = 0
KPD2 132147Z 10006KT 16/M05 A3026 RMK A01 T01581053  RH  023%=      5-min Rain = 0
KPD2 132148Z 11006KT 16/M05 A3026 RMK A01 T01581054  RH  023%=      5-min Rain = 0
KPD2 132149Z 11004KT 16/M05 A3026 RMK A01 T01571054  RH  023%=      5-min Rain = 0
KPD2 132150Z 12004KT 16/M05 A3026 RMK A01 T01561054  RH  023%=      5-min Rain = 0
KPD2 132151Z 13006KT 16/M05 A3026 RMK A01 T01561053  RH  023%=      5-min Rain = 0
KPD2 132152Z 12006KT 16/M05 A3026 RMK A01 T01561053  RH  023%=      5-min Rain = 0
KPD2 132153Z 12006KT 16/M05 A3026 RMK A01 T01561054  RH  023%=      5-min Rain = 0
KPD2 132154Z 14006KT 16/M05 A3026 RMK A01 T01561053  RH  023%=      5-min Rain = 0
KPD2 132155Z 14006KT 16/M05 A3026 RMK A01 T01571053  RH  023%=      5-min Rain = 0
KPD2 132156Z 12006KT 16/M05 A3026 RMK A01 T01591052  RH  023%=      5-min Rain = 0
KPD2 132157Z 12007KT 16/M05 A3026 RMK A01 T01621050  RH  023%=      5-min Rain = 0
KPD2 132158Z 13006KT 17/M05 A3026 RMK A01 T01651049  RH  023%=      5-min Rain = 0
KPD2 132159Z 13006KT 17/M05 A3026 RMK A01 T01691049  RH  022%=      5-min Rain = 0
KPD2 132200Z 14007KT 17/M05 A3026 RMK A01 T01691051  RH  022%=      5-min Rain = 0
KPD2 132201Z 16007KT 17/M05 A3026 RMK A01 T01671051  RH  022%=      5-min Rain = 0
KPD2 132202Z 13006KT 17/M05 A3026 RMK A01 T01661051  RH  022%=      5-min Rain = 0
KPD2 132203Z 14009KT 17/M05 A3026 RMK A01 T01661050  RH  022%=      5-min Rain = 0
KPD2 132204Z 12006KT 17/M05 A3026 RMK A01 T01671051  RH  022%=      5-min Rain = 0
KPD2 132205Z 12008KT 17/M05 A3026 RMK A01 T01671051  RH  022%=      5-min Rain = 0
KPD2 132206Z 12006KT 17/M05 A3026 RMK A01 T01681052  RH  022%=      5-min Rain = 0
KPD2 132207Z 13004KT 17/M05 A3026 RMK A01 T01691051  RH  022%=      5-min Rain = 0
KPD2 132208Z 13008KT 17/M05 A3026 RMK A01 T01691051  RH  022%=      5-min Rain = 0
KPD2 132209Z 11008KT 17/M05 A3026 RMK A01 T01691051  RH  022%=      5-min Rain = 0
KPD2 132210Z 14009KT 17/M05 A3026 RMK A01 T01701052  RH  021%=      5-min Rain = 0
KPD2 132211Z 14008KT 17/M05 A3026 RMK A01 T01691052  RH  022%=      5-min Rain = 0
KPD2 132212Z 12008KT 17/M05 A3026 RMK A01 T01681052  RH  022%=      5-min Rain = 0
KPD2 132213Z 08004KT 17/M05 A3026 RMK A01 T01671053  RH  022%=      5-min Rain = 0
KPD2 132214Z 14003KT 17/M05 A3026 RMK A01 T01661053  RH  022%=      5-min Rain = 0
KPD2 132215Z 13005KT 17/M05 A3026 RMK A01 T01671053  RH  022%=      5-min Rain = 0
KPD2 132216Z 15009KT 17/M05 A3026 RMK A01 T01681052  RH  022%=      5-min Rain = 0
KPD2 132217Z 16007KT 17/M05 A3026 RMK A01 T01701051  RH  022%=      5-min Rain = 0
KPD2 132218Z 15007KT 17/M05 A3026 RMK A01 T01701052  RH  022%=      5-min Rain = 0
KPD2 132219Z 15008KT 17/M05 A3026 RMK A01 T01701052  RH  021%=      5-min Rain = 0
KPD2 132220Z 15007KT 17/M05 A3026 RMK A01 T01711051  RH  021%=      5-min Rain = 0
KPD2 132221Z 16006KT 17/M05 A3026 RMK A01 T01701052  RH  021%=      5-min Rain = 0
KPD2 132222Z 16004KT 17/M05 A3025 RMK A01 T01671054  RH  022%=      5-min Rain = 0
KPD2 132223Z 13005KT 17/M05 A3026 RMK A01 T01661053  RH  022%=      5-min Rain = 0
KPD2 132224Z 11007KT 17/M05 A3026 RMK A01 T01681051  RH  022%=      5-min Rain = 0
KPD2 132225Z 14005KT 17/M05 A3026 RMK A01 T01711050  RH  022%=      5-min Rain = 0
KPD2 132226Z 17009KT 17/M05 A3025 RMK A01 T01721051  RH  021%=      5-min Rain = 0
KPD2 132227Z 15009KT 17/M05 A3025 RMK A01 T01711051  RH  021%=      5-min Rain = 0
KPD2 132228Z 15010KT 17/M05 A3026 RMK A01 T01721051  RH  021%=      5-min Rain = 0
KPD2 132229Z 15007KT 17/M05 A3026 RMK A01 T01721051  RH  021%=      5-min Rain = 0
KPD2 132230Z 13006KT 17/M05 A3026 RMK A01 T01721051  RH  021%=      5-min Rain = 0
KPD2 132231Z 13009KT 17/M05 A3026 RMK A01 T01741050  RH  021%=      5-min Rain = 0
KPD2 132232Z 12009KT 17/M05 A3026 RMK A01 T01741051  RH  021%=      5-min Rain = 0
KPD2 132233Z 14008KT 17/M05 A3026 RMK A01 T01741051  RH  021%=      5-min Rain = 0
KPD2 132234Z 14010KT 17/M05 A3026 RMK A01 T01741051  RH  021%=      5-min Rain = 0
KPD2 132235Z 13010KT 17/M05 A3026 RMK A01 T01721052  RH  021%=      5-min Rain = 0
KPD2 132236Z 13008KT 17/M05 A3026 RMK A01 T01701052  RH  021%=      5-min Rain = 0
KPD2 132237Z 12005KT 17/M05 A3026 RMK A01 T01691052  RH  022%=      5-min Rain = 0
KPD2 132238Z 12003KT 17/M05 A3026 RMK A01 T01681052  RH  022%=      5-min Rain = 0
KPD2 132239Z 14003KT 17/M05 A3026 RMK A01 T01691052  RH  022%=      5-min Rain = 0
KPD2 132240Z 11006KT 17/M05 A3026 RMK A01 T01701051  RH  022%=      5-min Rain = 0
KPD2 132241Z 13007KT 17/M05 A3025 RMK A01 T01731050  RH  021%=      5-min Rain = 0
KPD2 132242Z 13008KT 17/M05 A3025 RMK A01 T01741051  RH  021%=      5-min Rain = 0
KPD2 132243Z 14008KT 17/M05 A3025 RMK A01 T01731052  RH  021%=      5-min Rain = 0
KPD2 132244Z 11006KT 17/M05 A3025 RMK A01 T01701053  RH  021%=      5-min Rain = 0
KPD2 132245Z 13009KT 17/M05 A3025 RMK A01 T01691052  RH  021%=      5-min Rain = 0
KPD2 132246Z 13011KT 17/M05 A3025 RMK A01 T01691052  RH  022%=      5-min Rain = 0
KPD2 132247Z 14009KT 17/M05 A3025 RMK A01 T01671052  RH  022%=      5-min Rain = 0
KPD2 132248Z 14009KT 17/M05 A3025 RMK A01 T01671051  RH  022%=      5-min Rain = 0
KPD2 132249Z 15009KT 17/M05 A3025 RMK A01 T01681052  RH  022%=      5-min Rain = 0
KPD2 132250Z 15008KT 17/M05 A3025 RMK A01 T01661053  RH  022%=      5-min Rain = 0
KPD2 132251Z 17009KT 17/M05 A3025 RMK A01 T01651053  RH  022%=      5-min Rain = 0
KPD2 132252Z 16007KT 16/M05 A3025 RMK A01 T01611054  RH  022%=      5-min Rain = 0
KPD2 132253Z 16007KT 16/M05 A3025 RMK A01 T01581054  RH  023%=      5-min Rain = 0
KPD2 132254Z 12007KT 16/M05 A3025 RMK A01 T01571054  RH  023%=      5-min Rain = 0
KPD2 132255Z 11008KT 16/M05 A3025 RMK A01 T01571054  RH  023%=      5-min Rain = 0
KPD2 132256Z 09008KT 16/M06 A3025 RMK A01 T01571055  RH  023%=      5-min Rain = 0
KPD2 132257Z 09009KT 16/M06 A3025 RMK A01 T01551056  RH  023%=      5-min Rain = 0
KPD2 132258Z 11006KT 15/M06 A3025 RMK A01 T01531055  RH  023%=      5-min Rain = 0
KPD2 132259Z 13007KT 15/M06 A3025 RMK A01 T01521055  RH  024%=      5-min Rain = 0
KPD2 132300Z 12009KT 15/M06 A3025 RMK A01 T01531055  RH  024%=      5-min Rain = 0
KPD2 132301Z 12009KT 15/M06 A3025 RMK A01 T01531055  RH  023%=      5-min Rain = 0
KPD2 132302Z 12006KT 15/M05 A3025 RMK A01 T01541054  RH  023%=      5-min Rain = 0
KPD2 132303Z 13006KT 16/M05 A3025 RMK A01 T01571053  RH  023%=      5-min Rain = 0
KPD2 132304Z 12007KT 16/M05 A3025 RMK A01 T01621052  RH  023%=      5-min Rain = 0
KPD2 132305Z 10005KT 16/M05 A3025 RMK A01 T01641052  RH  022%=      5-min Rain = 0
KPD2 132306Z 12007KT 17/M05 A3025 RMK A01 T01651052  RH  022%=      5-min Rain = 0
KPD2 132307Z 12004KT 17/M05 A3025 RMK A01 T01651053  RH  022%=      5-min Rain = 0
KPD2 132308Z 14005KT 17/M05 A3025 RMK A01 T01661052  RH  022%=      5-min Rain = 0
KPD2 132309Z 14007KT 17/M05 A3025 RMK A01 T01651053  RH  022%=      5-min Rain = 0
KPD2 132310Z 13005KT 16/M05 A3025 RMK A01 T01631052  RH  022%=      5-min Rain = 0
KPD2 132311Z 16005KT 16/M05 A3025 RMK A01 T01631052  RH  022%=      5-min Rain = 0
KPD2 132312Z 15008KT 16/M05 A3025 RMK A01 T01631052  RH  022%=      5-min Rain = 0
KPD2 132313Z 16008KT 16/M05 A3025 RMK A01 T01631052  RH  022%=      5-min Rain = 0
KPD2 132314Z 15006KT 16/M05 A3025 RMK A01 T01621052  RH  023%=      5-min Rain = 0
KPD2 132315Z 16007KT 16/M05 A3025 RMK A01 T01621052  RH  023%=      5-min Rain = 0
KPD2 132316Z 14009KT 16/M05 A3025 RMK A01 T01621052  RH  023%=      5-min Rain = 0
KPD2 132317Z 13008KT 16/M05 A3025 RMK A01 T01621052  RH  022%=      5-min Rain = 0
KPD2 132318Z 13007KT 16/M05 A3025 RMK A01 T01611053  RH  023%=      5-min Rain = 0
KPD2 132319Z 13006KT 16/M05 A3025 RMK A01 T01601053  RH  023%=      5-min Rain = 0
KPD2 132320Z 13010KT 16/M05 A3025 RMK A01 T01591053  RH  023%=      5-min Rain = 0
KPD2 132321Z 11008KT 16/M05 A3025 RMK A01 T01581054  RH  023%=      5-min Rain = 0
KPD2 132322Z 12008KT 16/M05 A3025 RMK A01 T01571054  RH  023%=      5-min Rain = 0
KPD2 132323Z 12010KT 16/M05 A3025 RMK A01 T01571053  RH  023%=      5-min Rain = 0
KPD2 132324Z 15009KT 16/M05 A3025 RMK A01 T01561054  RH  023%=      5-min Rain = 0
KPD2 132325Z 15009KT 16/M05 A3025 RMK A01 T01551054  RH  023%=      5-min Rain = 0
KPD2 132326Z 15006KT 15/M05 A3025 RMK A01 T01531054  RH  024%=      5-min Rain = 0
KPD2 132327Z 14007KT 15/M05 A3025 RMK A01 T01531053  RH  024%=      5-min Rain = 0
KPD2 132328Z 14008KT 15/M05 A3025 RMK A01 T01521054  RH  024%=      5-min Rain = 0
KPD2 132329Z 15007KT 15/M05 A3025 RMK A01 T01511054  RH  024%=      5-min Rain = 0
KPD2 132330Z 14007KT 15/M05 A3025 RMK A01 T01511053  RH  024%=      5-min Rain = 0
KPD2 132331Z 15006KT 15/M05 A3025 RMK A01 T01501053  RH  024%=      5-min Rain = 0
KPD2 132332Z 15007KT 15/M05 A3025 RMK A01 T01491054  RH  024%=      5-min Rain = 0
KPD2 132333Z 14006KT 15/M05 A3025 RMK A01 T01491054  RH  024%=      5-min Rain = 0
KPD2 132334Z 15007KT 15/M05 A3025 RMK A01 T01491054  RH  024%=      5-min Rain = 0
KPD2 132335Z 14007KT 15/M05 A3025 RMK A01 T01481053  RH  024%=      5-min Rain = 0
KPD2 132336Z 14007KT 15/M05 A3025 RMK A01 T01491053  RH  024%=      5-min Rain = 0
KPD2 132337Z 14007KT 15/M05 A3025 RMK A01 T01481053  RH  024%=      5-min Rain = 0
KPD2 132338Z 14006KT 15/M05 A3025 RMK A01 T01481053  RH  025%=      5-min Rain = 0
KPD2 132339Z 14008KT 15/M05 A3025 RMK A01 T01471053  RH  025%=      5-min Rain = 0
KPD2 132340Z 14007KT 15/M05 A3025 RMK A01 T01471053  RH  025%=      5-min Rain = 0
KPD2 132341Z 14006KT 15/M05 A3025 RMK A01 T01461053  RH  025%=      5-min Rain = 0
KPD2 132342Z 14007KT 15/M05 A3025 RMK A01 T01461053  RH  025%=      5-min Rain = 0
KPD2 132343Z 15005KT 15/M05 A3025 RMK A01 T01461053  RH  025%=      5-min Rain = 0
KPD2 132344Z 14006KT 15/M05 A3025 RMK A01 T01461053  RH  025%=      5-min Rain = 0
KPD2 132345Z 14006KT 15/M05 A3025 RMK A01 T01461052  RH  025%=      5-min Rain = 0
KPD2 132346Z 15005KT 15/M05 A3025 RMK A01 T01461052  RH  025%=      5-min Rain = 0
KPD2 132347Z 15005KT 15/M05 A3025 RMK A01 T01461052  RH  025%=      5-min Rain = 0
KPD2 132348Z 16007KT 15/M05 A3025 RMK A01 T01451052  RH  025%=      5-min Rain = 0
KPD2 132349Z 14009KT 15/M05 A3025 RMK A01 T01451053  RH  025%=      5-min Rain = 0
KPD2 132350Z 13006KT 14/M05 A3025 RMK A01 T01441053  RH  025%=      5-min Rain = 0
KPD2 132351Z 14007KT 14/M05 A3025 RMK A01 T01441053  RH  025%=      5-min Rain = 0
KPD2 132352Z 13009KT 14/M05 A3025 RMK A01 T01441053  RH  025%=      5-min Rain = 0
KPD2 132353Z 13009KT 14/M05 A3025 RMK A01 T01441053  RH  025%=      5-min Rain = 0
KPD2 132354Z 15008KT 14/M05 A3025 RMK A01 T01431054  RH  025%=      5-min Rain = 0
KPD2 132355Z 15009KT 14/M05 A3025 RMK A01 T01431053  RH  025%=      5-min Rain = 0
KPD2 132356Z 14007KT 14/M05 A3025 RMK A01 T01431053  RH  025%=      5-min Rain = 0
KPD2 132357Z 14005KT 14/M05 A3025 RMK A01 T01421053  RH  025%=      5-min Rain = 0
KPD2 132358Z 14010KT 14/M05 A3025 RMK A01 T01421054  RH  025%=      5-min Rain = 0
KPD2 132359Z 14009KT 14/M05 A3025 RMK A01 T01421053  RH  025%=      5-min Rain = 0
KPD2 140000Z 13007KT 14/M05 A3025 RMK A01 T01411054  RH  025%=      5-min Rain = 0
KPD2 140001Z 13006KT 14/M05 A3025 RMK A01 T01411054  RH  025%=      5-min Rain = 0
KPD2 140002Z 13007KT 14/M05 A3026 RMK A01 T01411054  RH  025%=      5-min Rain = 0
KPD2 140003Z 13009KT 14/M05 A3026 RMK A01 T01401054  RH  025%=      5-min Rain = 0
KPD2 140004Z 13009KT 14/M05 A3026 RMK A01 T01411054  RH  026%=      5-min Rain = 0
KPD2 140005Z 13007KT 14/M05 A3026 RMK A01 T01411054  RH  025%=      5-min Rain = 0
KPD2 140006Z 13008KT 14/M05 A3025 RMK A01 T01411054  RH  025%=      5-min Rain = 0
KPD2 140007Z 13006KT 14/M06 A3025 RMK A01 T01401055  RH  025%=      5-min Rain = 0
KPD2 140008Z 13006KT 14/M06 A3025 RMK A01 T01401055  RH  026%=      5-min Rain = 0
KPD2 140009Z 12008KT 14/M06 A3025 RMK A01 T01391055  RH  026%=      5-min Rain = 0
KPD2 140010Z 14007KT 14/M06 A3025 RMK A01 T01391055  RH  026%=      5-min Rain = 0
KPD2 140011Z 13007KT 14/M06 A3025 RMK A01 T01391055  RH  026%=      5-min Rain = 0
KPD2 140012Z 13008KT 14/M06 A3025 RMK A01 T01391055  RH  026%=      5-min Rain = 0
KPD2 140013Z 13009KT 14/M05 A3025 RMK A01 T01391054  RH  026%=      5-min Rain = 0
KPD2 140014Z 13009KT 14/M05 A3025 RMK A01 T01391054  RH  026%=      5-min Rain = 0
KPD2 140015Z 14008KT 14/M05 A3025 RMK A01 T01391054  RH  026%=      5-min Rain = 0
KPD2 140016Z 13007KT 14/M05 A3025 RMK A01 T01391054  RH  026%=      5-min Rain = 0
KPD2 140017Z 14007KT 14/M05 A3025 RMK A01 T01381054  RH  026%=      5-min Rain = 0
KPD2 140018Z 13006KT 14/M05 A3025 RMK A01 T01381054  RH  026%=      5-min Rain = 0
KPD2 140019Z 12007KT 14/M06 A3025 RMK A01 T01371055  RH  026%=      5-min Rain = 0
KPD2 140020Z 13007KT 14/M06 A3025 RMK A01 T01371055  RH  026%=      5-min Rain = 0
KPD2 140021Z 13008KT 14/M05 A3025 RMK A01 T01371054  RH  026%=      5-min Rain = 0
KPD2 140022Z 12010KT 14/M05 A3025 RMK A01 T01371054  RH  026%=      5-min Rain = 0
KPD2 140023Z 13008KT 14/M06 A3025 RMK A01 T01361055  RH  026%=      5-min Rain = 0
KPD2 140024Z 13009KT 14/M06 A3025 RMK A01 T01361055  RH  026%=      5-min Rain = 0
KPD2 140025Z 13007KT 14/M06 A3025 RMK A01 T01371055  RH  026%=      5-min Rain = 0
KPD2 140026Z 14009KT 14/M05 A3025 RMK A01 T01371054  RH  026%=      5-min Rain = 0
KPD2 140027Z 13007KT 14/M05 A3025 RMK A01 T01361054  RH  026%=      5-min Rain = 0
KPD2 140028Z 15005KT 14/M06 A3025 RMK A01 T01361055  RH  026%=      5-min Rain = 0
KPD2 140029Z 15006KT 14/M06 A3025 RMK A01 T01351055  RH  026%=      5-min Rain = 0
KPD2 140030Z 14005KT 13/M06 A3025 RMK A01 T01341055  RH  027%=      5-min Rain = 0
KPD2 140031Z 15005KT 13/M06 A3025 RMK A01 T01331055  RH  027%=      5-min Rain = 0
KPD2 140032Z 15005KT 13/M06 A3025 RMK A01 T01321055  RH  027%=      5-min Rain = 0
KPD2 140033Z 14005KT 13/M06 A3025 RMK A01 T01311055  RH  027%=      5-min Rain = 0
KPD2 140034Z 14005KT 13/M06 A3025 RMK A01 T01301055  RH  027%=      5-min Rain = 0
KPD2 140035Z 15006KT 13/M06 A3025 RMK A01 T01301055  RH  027%=      5-min Rain = 0
KPD2 140036Z 15005KT 13/M06 A3025 RMK A01 T01291055  RH  027%=      5-min Rain = 0
KPD2 140037Z 15006KT 13/M06 A3025 RMK A01 T01291055  RH  027%=      5-min Rain = 0
KPD2 140038Z 15005KT 13/M06 A3025 RMK A01 T01281055  RH  028%=      5-min Rain = 0
KPD2 140039Z 15004KT 13/M06 A3025 RMK A01 T01271055  RH  028%=      5-min Rain = 0
KPD2 140040Z 15006KT 13/M06 A3025 RMK A01 T01261055  RH  028%=      5-min Rain = 0
KPD2 140041Z 15005KT 13/M06 A3025 RMK A01 T01261055  RH  028%=      5-min Rain = 0
KPD2 140042Z 15005KT 13/M06 A3025 RMK A01 T01251055  RH  028%=      5-min Rain = 0
KPD2 140043Z 15005KT 13/M06 A3025 RMK A01 T01251056  RH  028%=      5-min Rain = 0
KPD2 140044Z 15005KT 12/M06 A3025 RMK A01 T01241055  RH  028%=      5-min Rain = 0
KPD2 140045Z 14004KT 12/M06 A3025 RMK A01 T01231056  RH  028%=      5-min Rain = 0
KPD2 140046Z 14004KT 12/M06 A3025 RMK A01 T01231056  RH  028%=      5-min Rain = 0
KPD2 140047Z 14004KT 12/M06 A3025 RMK A01 T01221056  RH  028%=      5-min Rain = 0
KPD2 140048Z 14005KT 12/M06 A3026 RMK A01 T01221056  RH  028%=      5-min Rain = 0
KPD2 140049Z 14006KT 12/M06 A3026 RMK A01 T01221055  RH  029%=      5-min Rain = 0
KPD2 140050Z 14006KT 12/M06 A3026 RMK A01 T01221055  RH  029%=      5-min Rain = 0
KPD2 140051Z 14006KT 12/M06 A3026 RMK A01 T01221056  RH  028%=      5-min Rain = 0
KPD2 140052Z 15006KT 12/M06 A3026 RMK A01 T01221056  RH  028%=      5-min Rain = 0
KPD2 140053Z 14005KT 12/M06 A3026 RMK A01 T01221056  RH  028%=      5-min Rain = 0
KPD2 140054Z 13005KT 12/M06 A3026 RMK A01 T01231056  RH  028%=      5-min Rain = 0
KPD2 140055Z 14005KT 12/M06 A3026 RMK A01 T01221056  RH  028%=      5-min Rain = 0
KPD2 140056Z 14005KT 12/M06 A3026 RMK A01 T01211056  RH  029%=      5-min Rain = 0
KPD2 140057Z 14005KT 12/M06 A3026 RMK A01 T01201056  RH  029%=      5-min Rain = 0
KPD2 140058Z 14005KT 12/M06 A3026 RMK A01 T01191056  RH  029%=      5-min Rain = 0
KPD2 140059Z 14005KT 12/M06 A3026 RMK A01 T01191056  RH  029%=      5-min Rain = 0
KPD2 140100Z 14005KT 12/M06 A3026 RMK A01 T01181056  RH  029%=      5-min Rain = 0
KPD2 140101Z 14005KT 12/M06 A3026 RMK A01 T01181056  RH  029%=      5-min Rain = 0
KPD2 140102Z 14005KT 12/M06 A3026 RMK A01 T01181056  RH  029%=      5-min Rain = 0
KPD2 140103Z 14006KT 12/M06 A3026 RMK A01 T01171057  RH  029%=      5-min Rain = 0
KPD2 140104Z 14006KT 12/M06 A3026 RMK A01 T01171056  RH  029%=      5-min Rain = 0
KPD2 140105Z 14005KT 12/M06 A3026 RMK A01 T01171057  RH  029%=      5-min Rain = 0
KPD2 140106Z 14005KT 12/M06 A3026 RMK A01 T01161057  RH  029%=      5-min Rain = 0
KPD2 140107Z 13005KT 12/M06 A3026 RMK A01 T01161057  RH  029%=      5-min Rain = 0
KPD2 140108Z 13004KT 12/M06 A3026 RMK A01 T01151058  RH  029%=      5-min Rain = 0
KPD2 140109Z 13005KT 11/M06 A3026 RMK A01 T01141058  RH  030%=      5-min Rain = 0
KPD2 140110Z 13004KT 11/M06 A3026 RMK A01 T01131058  RH  030%=      5-min Rain = 0
KPD2 140111Z 13005KT 11/M06 A3026 RMK A01 T01131058  RH  030%=      5-min Rain = 0
KPD2 140112Z 13005KT 11/M06 A3026 RMK A01 T01121058  RH  030%=      5-min Rain = 0
KPD2 140113Z 13005KT 11/M06 A3026 RMK A01 T01111059  RH  030%=      5-min Rain = 0
KPD2 140114Z 13005KT 11/M06 A3026 RMK A01 T01111059  RH  030%=      5-min Rain = 0
KPD2 140115Z 13005KT 11/M06 A3026 RMK A01 T01101059  RH  030%=      5-min Rain = 0
KPD2 140116Z 13005KT 11/M06 A3026 RMK A01 T01101059  RH  030%=      5-min Rain = 0
KPD2 140117Z 13005KT 11/M06 A3026 RMK A01 T01101058  RH  030%=      5-min Rain = 0
KPD2 140118Z 13005KT 11/M06 A3026 RMK A01 T01101058  RH  030%=      5-min Rain = 0
KPD2 140119Z 13005KT 11/M06 A3026 RMK A01 T01091058  RH  030%=      5-min Rain = 0
KPD2 140120Z 13005KT 11/M06 A3026 RMK A01 T01091058  RH  030%=      5-min Rain = 0
KPD2 140121Z 13005KT 11/M06 A3026 RMK A01 T01101058  RH  030%=      5-min Rain = 0
KPD2 140122Z 13005KT 11/M06 A3026 RMK A01 T01091058  RH  030%=      5-min Rain = 0
KPD2 140123Z 13005KT 11/M06 A3026 RMK A01 T01091059  RH  030%=      5-min Rain = 0
KPD2 140124Z 13005KT 11/M06 A3026 RMK A01 T01091058  RH  030%=      5-min Rain = 0
KPD2 140125Z 13005KT 11/M06 A3026 RMK A01 T01081058  RH  031%=      5-min Rain = 0
KPD2 140126Z 14005KT 11/M06 A3026 RMK A01 T01081058  RH  031%=      5-min Rain = 0
KPD2 140127Z 14005KT 11/M06 A3026 RMK A01 T01081058  RH  031%=      5-min Rain = 0
KPD2 140128Z 13005KT 11/M06 A3026 RMK A01 T01081058  RH  031%=      5-min Rain = 0
KPD2 140129Z 13005KT 11/M06 A3026 RMK A01 T01081058  RH  031%=      5-min Rain = 0
KPD2 140130Z 13005KT 11/M06 A3026 RMK A01 T01081058  RH  031%=      5-min Rain = 0
KPD2 140131Z 13005KT 11/M06 A3026 RMK A01 T01081059  RH  031%=      5-min Rain = 0
KPD2 140132Z 13005KT 11/M06 A3026 RMK A01 T01071059  RH  031%=      5-min Rain = 0
KPD2 140133Z 13005KT 11/M06 A3026 RMK A01 T01061059  RH  031%=      5-min Rain = 0
KPD2 140134Z 13005KT 11/M06 A3026 RMK A01 T01061059  RH  031%=      5-min Rain = 0
KPD2 140135Z 13005KT 11/M06 A3026 RMK A01 T01061059  RH  031%=      5-min Rain = 0
KPD2 140136Z 14005KT 11/M06 A3026 RMK A01 T01061059  RH  031%=      5-min Rain = 0
KPD2 140137Z 14005KT 11/M06 A3026 RMK A01 T01051059  RH  031%=      5-min Rain = 0
KPD2 140138Z 14004KT 11/M06 A3026 RMK A01 T01061059  RH  031%=      5-min Rain = 0
KPD2 140139Z 14005KT 11/M06 A3026 RMK A01 T01061059  RH  031%=      5-min Rain = 0
KPD2 140140Z 14005KT 11/M06 A3026 RMK A01 T01061059  RH  031%=      5-min Rain = 0
KPD2 140141Z 13004KT 11/M06 A3027 RMK A01 T01061059  RH  031%=      5-min Rain = 0
KPD2 140142Z 13005KT 11/M06 A3027 RMK A01 T01061060  RH  031%=      5-min Rain = 0
KPD2 140143Z 14005KT 11/M06 A3027 RMK A01 T01051059  RH  031%=      5-min Rain = 0
KPD2 140144Z 14005KT 11/M06 A3027 RMK A01 T01051060  RH  031%=      5-min Rain = 0
KPD2 140145Z 13005KT 10/M06 A3027 RMK A01 T01041060  RH  031%=      5-min Rain = 0
KPD2 140146Z 13005KT 10/M06 A3027 RMK A01 T01031060  RH  031%=      5-min Rain = 0
KPD2 140147Z 14006KT 10/M06 A3027 RMK A01 T01031060  RH  031%=      5-min Rain = 0
KPD2 140148Z 12005KT 10/M06 A3027 RMK A01 T01031060  RH  031%=      5-min Rain = 0
KPD2 140149Z 13005KT 10/M06 A3027 RMK A01 T01031060  RH  031%=      5-min Rain = 0
KPD2 140150Z 13005KT 10/M06 A3027 RMK A01 T01031060  RH  031%=      5-min Rain = 0
KPD2 140151Z 13005KT 10/M06 A3027 RMK A01 T01031060  RH  031%=      5-min Rain = 0
KPD2 140152Z 13005KT 10/M06 A3027 RMK A01 T01031060  RH  031%=      5-min Rain = 0
KPD2 140153Z 13005KT 10/M06 A3027 RMK A01 T01031060  RH  031%=      5-min Rain = 0
KPD2 140154Z 13005KT 10/M06 A3027 RMK A01 T01031060  RH  031%=      5-min Rain = 0
KPD2 140155Z 13005KT 10/M06 A3027 RMK A01 T01031060  RH  031%=      5-min Rain = 0
KPD2 140156Z 13005KT 10/M06 A3027 RMK A01 T01031060  RH  031%=      5-min Rain = 0
KPD2 140157Z 13005KT 10/M06 A3027 RMK A01 T01031060  RH  031%=      5-min Rain = 0
KPD2 140158Z 13005KT 10/M06 A3027 RMK A01 T01041060  RH  031%=      5-min Rain = 0
KPD2 140159Z 13006KT 10/M06 A3027 RMK A01 T01041060  RH  031%=      5-min Rain = 0
KPD2 140200Z 13006KT 10/M06 A3027 RMK A01 T01031060  RH  031%=      5-min Rain = 0
KPD2 140201Z 13005KT 10/M06 A3027 RMK A01 T01041060  RH  031%=      5-min Rain = 0
KPD2 140202Z 13005KT 10/M06 A3027 RMK A01 T01031061  RH  031%=      5-min Rain = 0
KPD2 140203Z 13005KT 10/M06 A3027 RMK A01 T01041060  RH  031%=      5-min Rain = 0
KPD2 140204Z 13006KT 10/M06 A3027 RMK A01 T01031061  RH  031%=      5-min Rain = 0
KPD2 140205Z 13005KT 10/M06 A3027 RMK A01 T01031061  RH  031%=      5-min Rain = 0
KPD2 140206Z 13005KT 10/M06 A3027 RMK A01 T01021061  RH  031%=      5-min Rain = 0
KPD2 140207Z 13006KT 10/M06 A3027 RMK A01 T01021060  RH  031%=      5-min Rain = 0
KPD2 140208Z 13005KT 10/M06 A3027 RMK A01 T01021061  RH  031%=      5-min Rain = 0
KPD2 140209Z 13006KT 10/M06 A3027 RMK A01 T01021060  RH  031%=      5-min Rain = 0
KPD2 140210Z 13006KT 10/M06 A3027 RMK A01 T01021061  RH  031%=      5-min Rain = 0
KPD2 140211Z 13006KT 10/M06 A3027 RMK A01 T01011061  RH  031%=      5-min Rain = 0
KPD2 140212Z 12006KT 10/M06 A3027 RMK A01 T01011061  RH  031%=      5-min Rain = 0
KPD2 140213Z 12006KT 10/M06 A3028 RMK A01 T01011061  RH  031%=      5-min Rain = 0
KPD2 140214Z 12005KT 10/M06 A3028 RMK A01 T01011061  RH  031%=      5-min Rain = 0
KPD2 140215Z 12006KT 10/M06 A3028 RMK A01 T01021061  RH  031%=      5-min Rain = 0
KPD2 140216Z 12006KT 10/M06 A3028 RMK A01 T01021061  RH  031%=      5-min Rain = 0
KPD2 140217Z 12009KT 10/M06 A3028 RMK A01 T01031062  RH  031%=      5-min Rain = 0
KPD2 140218Z 13008KT 10/M06 A3028 RMK A01 T01041064  RH  030%=      5-min Rain = 0
KPD2 140219Z 13012KT 10/M07 A3028 RMK A01 T01041066  RH  030%=      5-min Rain = 0
KPD2 140220Z 13010G15KT 11/M07 A3028 RMK A01 T01051067  RH  029%=      5-min Rain = 0
KPD2 140221Z 13007KT 11/M07 A3028 RMK A01 T01051068  RH  029%=      5-min Rain = 0
KPD2 140222Z 15006KT 10/M07 A3029 RMK A01 T01041069  RH  029%=      5-min Rain = 0
KPD2 140223Z 13009G14KT 10/M07 A3029 RMK A01 T01021069  RH  029%=      5-min Rain = 0
KPD2 140224Z 13009KT 10/M07 A3029 RMK A01 T01011069  RH  030%=      5-min Rain = 0
KPD2 140225Z 14007KT 10/M07 A3029 RMK A01 T01001070  RH  029%=      5-min Rain = 0
KPD2 140226Z 14008KT 10/M07 A3029 RMK A01 T01001070  RH  029%=      5-min Rain = 0
KPD2 140227Z 14008KT 10/M07 A3029 RMK A01 T00991070  RH  030%=      5-min Rain = 0
KPD2 140228Z 14008KT 10/M07 A3029 RMK A01 T00981070  RH  030%=      5-min Rain = 0
KPD2 140229Z 14007KT 10/M07 A3029 RMK A01 T00971071  RH  030%=      5-min Rain = 0
KPD2 140230Z 14006KT 10/M07 A3029 RMK A01 T00971071  RH  030%=      5-min Rain = 0
KPD2 140231Z 14007KT 10/M07 A3029 RMK A01 T00961071  RH  030%=      5-min Rain = 0
KPD2 140232Z 14007KT 10/M07 A3029 RMK A01 T00961071  RH  030%=      5-min Rain = 0
KPD2 140233Z 14008KT 10/M07 A3029 RMK A01 T00961072  RH  030%=      5-min Rain = 0
KPD2 140234Z 14008KT 10/M07 A3029 RMK A01 T00961072  RH  030%=      5-min Rain = 0
KPD2 140235Z 14007KT 10/M07 A3029 RMK A01 T00961072  RH  030%=      5-min Rain = 0
KPD2 140236Z 14008KT 10/M07 A3029 RMK A01 T00951072  RH  030%=      5-min Rain = 0
KPD2 140237Z 14009KT 10/M07 A3029 RMK A01 T00951072  RH  030%=      5-min Rain = 0
KPD2 140238Z 14009KT 09/M07 A3029 RMK A01 T00941073  RH  030%=      5-min Rain = 0
KPD2 140239Z 14009KT 09/M07 A3029 RMK A01 T00941073  RH  030%=      5-min Rain = 0
KPD2 140240Z 14008KT 09/M07 A3029 RMK A01 T00941072  RH  030%=      5-min Rain = 0
KPD2 140241Z 14008KT 09/M07 A3029 RMK A01 T00941073  RH  030%=      5-min Rain = 0
KPD2 140242Z 14009KT 09/M07 A3029 RMK A01 T00941072  RH  030%=      5-min Rain = 0
KPD2 140243Z 14009KT 09/M07 A3029 RMK A01 T00941073  RH  030%=      5-min Rain = 0
KPD2 140244Z 14009KT 09/M07 A3029 RMK A01 T00941073  RH  030%=      5-min Rain = 0
KPD2 140245Z 13008KT 09/M07 A3029 RMK A01 T00941073  RH  030%=      5-min Rain = 0
KPD2 140246Z 14007KT 09/M07 A303 RMK A01 T00941073  RH  030%=      5-min Rain = 0
KPD2 140247Z 13007KT 09/M07 A303 RMK A01 T00931073  RH  030%=      5-min Rain = 0
KPD2 140248Z 14007KT 09/M07 A303 RMK A01 T00921073  RH  030%=      5-min Rain = 0
KPD2 140249Z 13008KT 09/M07 A303 RMK A01 T00911073  RH  031%=      5-min Rain = 0
KPD2 140250Z 13007KT 09/M07 A303 RMK A01 T00911074  RH  031%=      5-min Rain = 0
KPD2 140251Z 13007KT 09/M07 A303 RMK A01 T00911074  RH  031%=      5-min Rain = 0
KPD2 140252Z 13007KT 09/M07 A303 RMK A01 T00911074  RH  031%=      5-min Rain = 0
KPD2 140253Z 13007KT 09/M07 A303 RMK A01 T00911074  RH  031%=      5-min Rain = 0
KPD2 140254Z 13008KT 09/M07 A303 RMK A01 T00911073  RH  031%=      5-min Rain = 0
KPD2 140255Z 13008KT 09/M07 A303 RMK A01 T00911073  RH  031%=      5-min Rain = 0
KPD2 140256Z 13008KT 09/M07 A303 RMK A01 T00901074  RH  031%=      5-min Rain = 0
KPD2 140257Z 13007KT 09/M07 A303 RMK A01 T00901074  RH  031%=      5-min Rain = 0
KPD2 140258Z 13007KT 09/M07 A303 RMK A01 T00901074  RH  031%=      5-min Rain = 0
KPD2 140259Z 14007KT 09/M07 A303 RMK A01 T00891074  RH  031%=      5-min Rain = 0
KPD2 140300Z 13008KT 09/M07 A303 RMK A01 T00891074  RH  031%=      5-min Rain = 0
KPD2 140301Z 13007KT 09/M07 A303 RMK A01 T00891074  RH  031%=      5-min Rain = 0
KPD2 140302Z 14007KT 09/M07 A303 RMK A01 T00891074  RH  031%=      5-min Rain = 0
KPD2 140303Z 13007KT 09/M07 A303 RMK A01 T00891074  RH  031%=      5-min Rain = 0
KPD2 140304Z 14008KT 09/M07 A303 RMK A01 T00891074  RH  031%=      5-min Rain = 0
KPD2 140305Z 14008KT 09/M07 A303 RMK A01 T00891074  RH  031%=      5-min Rain = 0
KPD2 140306Z 14008KT 09/M07 A303 RMK A01 T00891073  RH  031%=      5-min Rain = 0
KPD2 140307Z 13007KT 09/M07 A303 RMK A01 T00881074  RH  031%=      5-min Rain = 0
KPD2 140308Z 14007KT 09/M07 A303 RMK A01 T00881074  RH  031%=      5-min Rain = 0
KPD2 140309Z 13007KT 09/M07 A303 RMK A01 T00871074  RH  031%=      5-min Rain = 0
KPD2 140310Z 13010KT 09/M07 A303 RMK A01 T00871074  RH  031%=      5-min Rain = 0
KPD2 140311Z 13008KT 09/M07 A303 RMK A01 T00871073  RH  031%=      5-min Rain = 0
KPD2 140312Z 14007KT 09/M07 A303 RMK A01 T00881073  RH  031%=      5-min Rain = 0
KPD2 140313Z 13008KT 09/M07 A303 RMK A01 T00881073  RH  031%=      5-min Rain = 0
KPD2 140314Z 14009KT 09/M07 A303 RMK A01 T00871074  RH  031%=      5-min Rain = 0
KPD2 140315Z 13008KT 09/M07 A303 RMK A01 T00871074  RH  031%=      5-min Rain = 0
KPD2 140316Z 14009KT 09/M07 A303 RMK A01 T00871073  RH  031%=      5-min Rain = 0
KPD2 140317Z 13008KT 09/M07 A303 RMK A01 T00871074  RH  031%=      5-min Rain = 0
KPD2 140318Z 14009KT 09/M07 A303 RMK A01 T00871073  RH  031%=      5-min Rain = 0
KPD2 140319Z 14008KT 09/M07 A303 RMK A01 T00871073  RH  032%=      5-min Rain = 0
KPD2 140320Z 13007KT 09/M07 A303 RMK A01 T00861074  RH  032%=      5-min Rain = 0
KPD2 140321Z 13008KT 09/M07 A303 RMK A01 T00851074  RH  032%=      5-min Rain = 0
KPD2 140322Z 13007KT 09/M07 A303 RMK A01 T00851074  RH  032%=      5-min Rain = 0
KPD2 140323Z 14007KT 08/M07 A303 RMK A01 T00841074  RH  032%=      5-min Rain = 0
KPD2 140324Z 14008KT 08/M07 A303 RMK A01 T00841074  RH  032%=      5-min Rain = 0
KPD2 140325Z 13008KT 08/M07 A3031 RMK A01 T00841073  RH  032%=      5-min Rain = 0
KPD2 140326Z 13008KT 08/M07 A3031 RMK A01 T00831074  RH  032%=      5-min Rain = 0
KPD2 140327Z 13007KT 08/M07 A3031 RMK A01 T00831073  RH  032%=      5-min Rain = 0
KPD2 140328Z 14007KT 08/M07 A3031 RMK A01 T00841073  RH  032%=      5-min Rain = 0
KPD2 140329Z 13007KT 08/M07 A3031 RMK A01 T00831073  RH  032%=      5-min Rain = 0
KPD2 140330Z 13006KT 08/M07 A3031 RMK A01 T00831074  RH  032%=      5-min Rain = 0
KPD2 140331Z 14007KT 08/M07 A3031 RMK A01 T00831074  RH  032%=      5-min Rain = 0
KPD2 140332Z 13007KT 08/M07 A3031 RMK A01 T00831073  RH  032%=      5-min Rain = 0
KPD2 140333Z 14006KT 08/M07 A3031 RMK A01 T00831074  RH  032%=      5-min Rain = 0
KPD2 140334Z 14007KT 08/M07 A3031 RMK A01 T00831073  RH  032%=      5-min Rain = 0
KPD2 140335Z 13007KT 08/M07 A3031 RMK A01 T00831073  RH  032%=      5-min Rain = 0
KPD2 140336Z 13007KT 08/M07 A3031 RMK A01 T00831074  RH  032%=      5-min Rain = 0
KPD2 140337Z 13007KT 08/M07 A3031 RMK A01 T00841073  RH  032%=      5-min Rain = 0
KPD2 140338Z 13007KT 08/M07 A3031 RMK A01 T00841073  RH  032%=      5-min Rain = 0
KPD2 140339Z 13006KT 08/M07 A3031 RMK A01 T00841073  RH  032%=      5-min Rain = 0
KPD2 140340Z 13006KT 08/M07 A3031 RMK A01 T00841073  RH  032%=      5-min Rain = 0
KPD2 140341Z 13006KT 08/M07 A3031 RMK A01 T00831073  RH  032%=      5-min Rain = 0
KPD2 140342Z 13007KT 08/M07 A3031 RMK A01 T00831074  RH  032%=      5-min Rain = 0
KPD2 140343Z 13007KT 08/M07 A3031 RMK A01 T00821074  RH  032%=      5-min Rain = 0
KPD2 140344Z 13007KT 08/M07 A3031 RMK A01 T00831073  RH  032%=      5-min Rain = 0
KPD2 140345Z 13008KT 08/M07 A3031 RMK A01 T00831073  RH  032%=      5-min Rain = 0
KPD2 140346Z 13009KT 08/M07 A3031 RMK A01 T00831073  RH  032%=      5-min Rain = 0
KPD2 140347Z 13009KT 08/M07 A3031 RMK A01 T00831073  RH  032%=      5-min Rain = 0
KPD2 140348Z 13008KT 08/M07 A3031 RMK A01 T00841073  RH  032%=      5-min Rain = 0
KPD2 140349Z 13009KT 08/M07 A3031 RMK A01 T00841073  RH  032%=      5-min Rain = 0
KPD2 140350Z 13009KT 08/M07 A3031 RMK A01 T00841073  RH  032%=      5-min Rain = 0
KPD2 140351Z 13008KT 08/M07 A3031 RMK A01 T00841073  RH  032%=      5-min Rain = 0
KPD2 140352Z 13007KT 08/M07 A3031 RMK A01 T00841073  RH  032%=      5-min Rain = 0
KPD2 140353Z 13007KT 08/M07 A3031 RMK A01 T00841073  RH  032%=      5-min Rain = 0
KPD2 140354Z 13008KT 08/M07 A3031 RMK A01 T00841073  RH  032%=      5-min Rain = 0
KPD2 140355Z 13007KT 08/M07 A3031 RMK A01 T00841073  RH  032%=      5-min Rain = 0
KPD2 140356Z 13008KT 08/M07 A3031 RMK A01 T00841073  RH  032%=      5-min Rain = 0
KPD2 140357Z 13008KT 08/M07 A3031 RMK A01 T00841073  RH  032%=      5-min Rain = 0
KPD2 140358Z 13007KT 08/M07 A3031 RMK A01 T00841073  RH  032%=      5-min Rain = 0
KPD2 140359Z 13008KT 09/M07 A3031 RMK A01 T00851073  RH  032%=      5-min Rain = 0
KPD2 140400Z 13008KT 09/M07 A3031 RMK A01 T00851073  RH  032%=      5-min Rain = 0
KPD2 140401Z 13008KT 09/M07 A3031 RMK A01 T00851073  RH  032%=      5-min Rain = 0
KPD2 140402Z 13007KT 09/M07 A3031 RMK A01 T00851073  RH  032%=      5-min Rain = 0
KPD2 140403Z 13008KT 09/M07 A3031 RMK A01 T00851072  RH  032%=      5-min Rain = 0
KPD2 140404Z 14007KT 09/M07 A3031 RMK A01 T00851072  RH  032%=      5-min Rain = 0
KPD2 140405Z 13008KT 08/M07 A3031 RMK A01 T00841073  RH  032%=      5-min Rain = 0
KPD2 140406Z 13008KT 08/M07 A3031 RMK A01 T00841072  RH  032%=      5-min Rain = 0
KPD2 140407Z 13007KT 08/M07 A3031 RMK A01 T00841072  RH  032%=      5-min Rain = 0
KPD2 140408Z 13007KT 08/M07 A3031 RMK A01 T00841073  RH  032%=      5-min Rain = 0
KPD2 140409Z 13007KT 08/M07 A3031 RMK A01 T00841072  RH  032%=      5-min Rain = 0
KPD2 140410Z 13008KT 08/M07 A3031 RMK A01 T00841072  RH  032%=      5-min Rain = 0
KPD2 140411Z 13006KT 08/M07 A3031 RMK A01 T00841072  RH  032%=      5-min Rain = 0
KPD2 140412Z 13007KT 08/M07 A3031 RMK A01 T00841072  RH  032%=      5-min Rain = 0
KPD2 140413Z 13007KT 08/M07 A3031 RMK A01 T00831072  RH  032%=      5-min Rain = 0
KPD2 140414Z 13008KT 08/M07 A3031 RMK A01 T00831072  RH  032%=      5-min Rain = 0
KPD2 140415Z 13007KT 08/M07 A3031 RMK A01 T00831072  RH  032%=      5-min Rain = 0
KPD2 140416Z 13006KT 08/M07 A3031 RMK A01 T00841072  RH  032%=      5-min Rain = 0
KPD2 140417Z 13008KT 08/M07 A3031 RMK A01 T00841072  RH  032%=      5-min Rain = 0
KPD2 140418Z 13007KT 08/M07 A3031 RMK A01 T00841072  RH  032%=      5-min Rain = 0
KPD2 140419Z 13007KT 08/M07 A3031 RMK A01 T00841072  RH  032%=      5-min Rain = 0
KPD2 140420Z 13007KT 08/M07 A3031 RMK A01 T00841072  RH  032%=      5-min Rain = 0
KPD2 140421Z 13008KT 08/M07 A3031 RMK A01 T00841072  RH  032%=      5-min Rain = 0
KPD2 140422Z 13008KT 08/M07 A3031 RMK A01 T00841072  RH  032%=      5-min Rain = 0
KPD2 140423Z 14006KT 08/M07 A3031 RMK A01 T00841072  RH  032%=      5-min Rain = 0
KPD2 140424Z 14007KT 08/M07 A3031 RMK A01 T00841072  RH  032%=      5-min Rain = 0
KPD2 140425Z 13007KT 08/M07 A3031 RMK A01 T00841072  RH  032%=      5-min Rain = 0
KPD2 140426Z 14007KT 08/M07 A3031 RMK A01 T00841071  RH  032%=      5-min Rain = 0
KPD2 140427Z 13007KT 08/M07 A3031 RMK A01 T00841071  RH  033%=      5-min Rain = 0
KPD2 140428Z 13007KT 08/M07 A3031 RMK A01 T00841071  RH  033%=      5-min Rain = 0
KPD2 140429Z 13006KT 08/M07 A3031 RMK A01 T00831071  RH  033%=      5-min Rain = 0
KPD2 140430Z 13007KT 08/M07 A3031 RMK A01 T00831071  RH  033%=      5-min Rain = 0
KPD2 140431Z 13007KT 08/M07 A3031 RMK A01 T00821071  RH  033%=      5-min Rain = 0
KPD2 140432Z 13007KT 08/M07 A3031 RMK A01 T00821071  RH  033%=      5-min Rain = 0
KPD2 140433Z 13008KT 08/M07 A3031 RMK A01 T00821071  RH  033%=      5-min Rain = 0
KPD2 140434Z 14008KT 08/M07 A3031 RMK A01 T00821071  RH  033%=      5-min Rain = 0
KPD2 140435Z 13007KT 08/M07 A3031 RMK A01 T00821071  RH  033%=      5-min Rain = 0
KPD2 140436Z 13006KT 08/M07 A3031 RMK A01 T00821071  RH  033%=      5-min Rain = 0
KPD2 140437Z 13007KT 08/M07 A3031 RMK A01 T00821071  RH  033%=      5-min Rain = 0
KPD2 140438Z 13007KT 08/M07 A3031 RMK A01 T00821071  RH  033%=      5-min Rain = 0
KPD2 140439Z 13007KT 08/M07 A3031 RMK A01 T00821071  RH  033%=      5-min Rain = 0
KPD2 140440Z 13007KT 08/M07 A3031 RMK A01 T00811071  RH  033%=      5-min Rain = 0
KPD2 140441Z 13007KT 08/M07 A3031 RMK A01 T00811071  RH  033%=      5-min Rain = 0
KPD2 140442Z 13007KT 08/M07 A3031 RMK A01 T00801071  RH  033%=      5-min Rain = 0
KPD2 140443Z 13007KT 08/M07 A3031 RMK A01 T00801071  RH  034%=      5-min Rain = 0
KPD2 140444Z 13006KT 08/M07 A3031 RMK A01 T00801070  RH  034%=      5-min Rain = 0
KPD2 140445Z 14007KT 08/M07 A3031 RMK A01 T00801071  RH  034%=      5-min Rain = 0
KPD2 140446Z 13006KT 08/M07 A3031 RMK A01 T00791071  RH  034%=      5-min Rain = 0
KPD2 140447Z 13007KT 08/M07 A3031 RMK A01 T00791071  RH  034%=      5-min Rain = 0
KPD2 140448Z 13007KT 08/M07 A3031 RMK A01 T00791071  RH  034%=      5-min Rain = 0
KPD2 140449Z 13007KT 08/M07 A3031 RMK A01 T00781071  RH  034%=      5-min Rain = 0
KPD2 140450Z 13007KT 08/M07 A3031 RMK A01 T00781071  RH  034%=      5-min Rain = 0
KPD2 140451Z 13007KT 08/M07 A3031 RMK A01 T00781071  RH  034%=      5-min Rain = 0
KPD2 140452Z 13007KT 08/M07 A3031 RMK A01 T00771072  RH  034%=      5-min Rain = 0
KPD2 140453Z 13007KT 08/M07 A3031 RMK A01 T00761072  RH  034%=      5-min Rain = 0
KPD2 140454Z 13007KT 08/M07 A3031 RMK A01 T00761072  RH  034%=      5-min Rain = 0
KPD2 140455Z 13006KT 08/M07 A3031 RMK A01 T00751072  RH  034%=      5-min Rain = 0
KPD2 140456Z 13007KT 08/M07 A3031 RMK A01 T00761071  RH  034%=      5-min Rain = 0
KPD2 140457Z 13006KT 08/M07 A3031 RMK A01 T00751072  RH  034%=      5-min Rain = 0
KPD2 140458Z 13007KT 08/M07 A3031 RMK A01 T00751072  RH  035%=      5-min Rain = 0
KPD2 140459Z 13006KT 07/M07 A3031 RMK A01 T00741072  RH  035%=      5-min Rain = 0
KPD2 140500Z 13007KT 07/M07 A3031 RMK A01 T00741072  RH  035%=      5-min Rain = 0

Page generated in 0.0613 seconds.